Observation data for Tarzan on 07/17/2019      Previous  Date  Next       Current Mesonet Observations  Soil Data  Daily Summary Page  Observations in Plain Language
KTA1 170500Z 16011KT 30/17 A3001 RMK A01 T02970170  RH  046%=      5-min Rain = 0
KTA1 170501Z 15011KT 30/17 A3002 RMK A01 T02970170  RH  046%=      5-min Rain = 0
KTA1 170502Z 16012KT 30/17 A3002 RMK A01 T02970170  RH  047%=      5-min Rain = 0
KTA1 170503Z 15010KT 30/17 A3002 RMK A01 T02970171  RH  047%=      5-min Rain = 0
KTA1 170504Z 15010KT 30/17 A3002 RMK A01 T02960171  RH  047%=      5-min Rain = 0
KTA1 170505Z 15010KT 30/17 A3002 RMK A01 T02960171  RH  047%=      5-min Rain = 0
KTA1 170506Z 15013KT 30/17 A3002 RMK A01 T02960171  RH  047%=      5-min Rain = 0
KTA1 170507Z 16010KT 30/17 A3002 RMK A01 T02960171  RH  047%=      5-min Rain = 0
KTA1 170508Z 15010KT 30/17 A3002 RMK A01 T02960171  RH  047%=      5-min Rain = 0
KTA1 170509Z 15009KT 30/17 A3002 RMK A01 T02960171  RH  047%=      5-min Rain = 0
KTA1 170510Z 16009KT 30/17 A3002 RMK A01 T02950172  RH  047%=      5-min Rain = 0
KTA1 170511Z 15010KT 30/17 A3002 RMK A01 T02950172  RH  048%=      5-min Rain = 0
KTA1 170512Z 16011KT 30/17 A3002 RMK A01 T02950172  RH  048%=      5-min Rain = 0
KTA1 170513Z 16011KT 30/17 A3002 RMK A01 T02950172  RH  048%=      5-min Rain = 0
KTA1 170514Z 15010KT 30/17 A3002 RMK A01 T02950172  RH  048%=      5-min Rain = 0
KTA1 170515Z 16011KT 30/17 A3002 RMK A01 T02950173  RH  048%=      5-min Rain = 0
KTA1 170516Z 16012G17KT 30/17 A3002 RMK A01 T02950173  RH  048%=      5-min Rain = 0
KTA1 170517Z 16012KT 30/17 A3002 RMK A01 T02950173  RH  048%=      5-min Rain = 0
KTA1 170518Z 16010KT 30/17 A3002 RMK A01 T02950173  RH  048%=      5-min Rain = 0
KTA1 170519Z 15011KT 30/17 A3002 RMK A01 T02950173  RH  048%=      5-min Rain = 0
KTA1 170520Z 16009KT 30/17 A3002 RMK A01 T02950173  RH  048%=      5-min Rain = 0
KTA1 170521Z 15012G17KT 29/17 A3002 RMK A01 T02940173  RH  048%=      5-min Rain = 0
KTA1 170522Z 15009KT 29/17 A3002 RMK A01 T02940174  RH  048%=      5-min Rain = 0
KTA1 170523Z 16009KT 29/17 A3002 RMK A01 T02940174  RH  048%=      5-min Rain = 0
KTA1 170524Z 16013KT 29/17 A3001 RMK A01 T02940174  RH  048%=      5-min Rain = 0
KTA1 170525Z 15012KT 29/17 A3002 RMK A01 T02940174  RH  048%=      5-min Rain = 0
KTA1 170526Z 16012KT 29/17 A3001 RMK A01 T02940174  RH  048%=      5-min Rain = 0
KTA1 170527Z 16011KT 29/17 A3001 RMK A01 T02940174  RH  049%=      5-min Rain = 0
KTA1 170528Z 16012KT 29/18 A3001 RMK A01 T02940175  RH  049%=      5-min Rain = 0
KTA1 170529Z 16011KT 29/18 A3001 RMK A01 T02930175  RH  049%=      5-min Rain = 0
KTA1 170530Z 16012KT 29/18 A3001 RMK A01 T02930175  RH  049%=      5-min Rain = 0
KTA1 170531Z 16014KT 29/18 A3001 RMK A01 T02930175  RH  049%=      5-min Rain = 0
KTA1 170532Z 15012KT 29/18 A3001 RMK A01 T02930175  RH  049%=      5-min Rain = 0
KTA1 170533Z 16011KT 29/18 A3002 RMK A01 T02930175  RH  049%=      5-min Rain = 0
KTA1 170534Z 16012KT 29/18 A3002 RMK A01 T02930175  RH  049%=      5-min Rain = 0
KTA1 170535Z 16012KT 29/18 A3002 RMK A01 T02930176  RH  049%=      5-min Rain = 0
KTA1 170536Z 16012KT 29/18 A3002 RMK A01 T02930176  RH  049%=      5-min Rain = 0
KTA1 170537Z 16011KT 29/18 A3002 RMK A01 T02930176  RH  049%=      5-min Rain = 0
KTA1 170538Z 16011KT 29/18 A3002 RMK A01 T02930176  RH  049%=      5-min Rain = 0
KTA1 170539Z 16010KT 29/18 A3002 RMK A01 T02930176  RH  049%=      5-min Rain = 0
KTA1 170540Z 16012KT 29/18 A3002 RMK A01 T02930177  RH  050%=      5-min Rain = 0
KTA1 170541Z 16012KT 29/18 A3002 RMK A01 T02920177  RH  050%=      5-min Rain = 0
KTA1 170542Z 16011KT 29/18 A3002 RMK A01 T02920177  RH  050%=      5-min Rain = 0
KTA1 170543Z 16009KT 29/18 A3002 RMK A01 T02920177  RH  050%=      5-min Rain = 0
KTA1 170544Z 15009KT 29/18 A3002 RMK A01 T02920177  RH  050%=      5-min Rain = 0
KTA1 170545Z 16012KT 29/18 A3002 RMK A01 T02910177  RH  050%=      5-min Rain = 0
KTA1 170546Z 16011KT 29/18 A3002 RMK A01 T02910177  RH  050%=      5-min Rain = 0
KTA1 170547Z 16010KT 29/18 A3002 RMK A01 T02910177  RH  050%=      5-min Rain = 0
KTA1 170548Z 16011KT 29/18 A3002 RMK A01 T02910177  RH  050%=      5-min Rain = 0
KTA1 170549Z 16011KT 29/18 A3002 RMK A01 T02900177  RH  050%=      5-min Rain = 0
KTA1 170550Z 16010KT 29/18 A3002 RMK A01 T02910178  RH  050%=      5-min Rain = 0
KTA1 170551Z 16010KT 29/18 A3002 RMK A01 T02900177  RH  051%=      5-min Rain = 0
KTA1 170552Z 15010G15KT 29/18 A3002 RMK A01 T02900178  RH  051%=      5-min Rain = 0
KTA1 170553Z 16012KT 29/18 A3002 RMK A01 T02900178  RH  051%=      5-min Rain = 0
KTA1 170554Z 16011KT 29/18 A3002 RMK A01 T02900178  RH  051%=      5-min Rain = 0
KTA1 170555Z 16013KT 29/18 A3002 RMK A01 T02900178  RH  051%=      5-min Rain = 0
KTA1 170556Z 16012KT 29/18 A3002 RMK A01 T02900178  RH  051%=      5-min Rain = 0
KTA1 170557Z 16013KT 29/18 A3002 RMK A01 T02900178  RH  051%=      5-min Rain = 0
KTA1 170558Z 16014KT 29/18 A3002 RMK A01 T02900179  RH  051%=      5-min Rain = 0
KTA1 170559Z 16009KT 29/18 A3002 RMK A01 T02900179  RH  051%=      5-min Rain = 0
KTA1 170600Z 16010G15KT 29/18 A3002 RMK A01 T02900179  RH  051%=      5-min Rain = 0
KTA1 170601Z 16013KT 29/18 A3002 RMK A01 T02900180  RH  051%=      5-min Rain = 0
KTA1 170602Z 15015KT 29/18 A3002 RMK A01 T02900180  RH  051%=      5-min Rain = 0
KTA1 170603Z 16011G16KT 29/18 A3002 RMK A01 T02900180  RH  051%=      5-min Rain = 0
KTA1 170604Z 16010KT 29/18 A3002 RMK A01 T02900180  RH  051%=      5-min Rain = 0
KTA1 170605Z 16012KT 29/18 A3002 RMK A01 T02900180  RH  052%=      5-min Rain = 0
KTA1 170606Z 16012KT 29/18 A3002 RMK A01 T02890180  RH  052%=      5-min Rain = 0
KTA1 170607Z 16009KT 29/18 A3002 RMK A01 T02890180  RH  052%=      5-min Rain = 0
KTA1 170608Z 16011KT 29/18 A3002 RMK A01 T02890181  RH  052%=      5-min Rain = 0
KTA1 170609Z 16010KT 29/18 A3002 RMK A01 T02890181  RH  052%=      5-min Rain = 0
KTA1 170610Z 16011KT 29/18 A3002 RMK A01 T02880181  RH  052%=      5-min Rain = 0
KTA1 170611Z 16012KT 29/18 A3002 RMK A01 T02880181  RH  052%=      5-min Rain = 0
KTA1 170612Z 16013KT 29/18 A3002 RMK A01 T02880181  RH  052%=      5-min Rain = 0
KTA1 170613Z 16012KT 29/18 A3002 RMK A01 T02880181  RH  052%=      5-min Rain = 0
KTA1 170614Z 16011KT 29/18 A3002 RMK A01 T02880181  RH  052%=      5-min Rain = 0
KTA1 170615Z 16013KT 29/18 A3002 RMK A01 T02880181  RH  052%=      5-min Rain = 0
KTA1 170616Z 16013KT 29/18 A3002 RMK A01 T02880181  RH  052%=      5-min Rain = 0
KTA1 170617Z 16011KT 29/18 A3002 RMK A01 T02880181  RH  053%=      5-min Rain = 0
KTA1 170618Z 16012KT 29/18 A3002 RMK A01 T02870181  RH  053%=      5-min Rain = 0
KTA1 170619Z 16012KT 29/18 A3002 RMK A01 T02870182  RH  053%=      5-min Rain = 0
KTA1 170620Z 16011KT 29/18 A3002 RMK A01 T02870181  RH  053%=      5-min Rain = 0
KTA1 170621Z 16011KT 29/18 A3002 RMK A01 T02870182  RH  053%=      5-min Rain = 0
KTA1 170622Z 16012KT 29/18 A3002 RMK A01 T02860182  RH  053%=      5-min Rain = 0
KTA1 170623Z 16011KT 29/18 A3002 RMK A01 T02860182  RH  053%=      5-min Rain = 0
KTA1 170624Z 16013KT 29/18 A3002 RMK A01 T02860182  RH  053%=      5-min Rain = 0
KTA1 170625Z 16010KT 29/18 A3002 RMK A01 T02860183  RH  053%=      5-min Rain = 0
KTA1 170626Z 16011KT 29/18 A3002 RMK A01 T02860183  RH  053%=      5-min Rain = 0
KTA1 170627Z 16010KT 29/18 A3002 RMK A01 T02860183  RH  054%=      5-min Rain = 0
KTA1 170628Z 16010KT 29/18 A3002 RMK A01 T02850182  RH  054%=      5-min Rain = 0
KTA1 170629Z 16010KT 28/18 A3002 RMK A01 T02840182  RH  054%=      5-min Rain = 0
KTA1 170630Z 16010KT 28/18 A3002 RMK A01 T02840183  RH  054%=      5-min Rain = 0
KTA1 170631Z 16011KT 28/18 A3002 RMK A01 T02840183  RH  054%=      5-min Rain = 0
KTA1 170632Z 16010KT 28/18 A3002 RMK A01 T02840183  RH  054%=      5-min Rain = 0
KTA1 170633Z 16010KT 28/18 A3002 RMK A01 T02840183  RH  054%=      5-min Rain = 0
KTA1 170634Z 16012KT 28/18 A3002 RMK A01 T02830183  RH  054%=      5-min Rain = 0
KTA1 170635Z 16010KT 28/18 A3002 RMK A01 T02830183  RH  054%=      5-min Rain = 0
KTA1 170636Z 16011KT 28/18 A3002 RMK A01 T02830183  RH  055%=      5-min Rain = 0
KTA1 170637Z 16011KT 28/18 A3002 RMK A01 T02830183  RH  055%=      5-min Rain = 0
KTA1 170638Z 15010G15KT 28/18 A3002 RMK A01 T02830183  RH  055%=      5-min Rain = 0
KTA1 170639Z 16011KT 28/18 A3002 RMK A01 T02830183  RH  055%=      5-min Rain = 0
KTA1 170640Z 16009KT 28/18 A3002 RMK A01 T02830184  RH  055%=      5-min Rain = 0
KTA1 170641Z 16009KT 28/18 A3002 RMK A01 T02830184  RH  055%=      5-min Rain = 0
KTA1 170642Z 16009KT 28/18 A3002 RMK A01 T02820184  RH  055%=      5-min Rain = 0
KTA1 170643Z 15010KT 28/18 A3002 RMK A01 T02820184  RH  055%=      5-min Rain = 0
KTA1 170644Z 16010KT 28/18 A3002 RMK A01 T02810184  RH  055%=      5-min Rain = 0
KTA1 170645Z 16011KT 28/18 A3002 RMK A01 T02810184  RH  056%=      5-min Rain = 0
KTA1 170646Z 16011KT 28/18 A3002 RMK A01 T02810184  RH  056%=      5-min Rain = 0
KTA1 170647Z 15012KT 28/18 A3002 RMK A01 T02810184  RH  055%=      5-min Rain = 0
KTA1 170648Z 16012KT 28/18 A3002 RMK A01 T02810184  RH  056%=      5-min Rain = 0
KTA1 170649Z 16013KT 28/18 A3002 RMK A01 T02810184  RH  056%=      5-min Rain = 0
KTA1 170650Z 16011KT 28/18 A3002 RMK A01 T02820184  RH  055%=      5-min Rain = 0
KTA1 170651Z 16012KT 28/19 A3002 RMK A01 T02820185  RH  055%=      5-min Rain = 0
KTA1 170652Z 16010KT 28/18 A3002 RMK A01 T02820184  RH  055%=      5-min Rain = 0
KTA1 170653Z 16012KT 28/19 A3002 RMK A01 T02820185  RH  056%=      5-min Rain = 0
KTA1 170654Z 16013KT 28/19 A3002 RMK A01 T02810185  RH  056%=      5-min Rain = 0
KTA1 170655Z 16011KT 28/19 A3002 RMK A01 T02810185  RH  056%=      5-min Rain = 0
KTA1 170656Z 15010KT 28/19 A3002 RMK A01 T02810185  RH  056%=      5-min Rain = 0
KTA1 170657Z 16011KT 28/19 A3002 RMK A01 T02810185  RH  056%=      5-min Rain = 0
KTA1 170658Z 16011KT 28/19 A3002 RMK A01 T02800185  RH  056%=      5-min Rain = 0
KTA1 170659Z 16011KT 28/19 A3002 RMK A01 T02800185  RH  056%=      5-min Rain = 0
KTA1 170700Z 16012KT 28/19 A3002 RMK A01 T02800185  RH  056%=      5-min Rain = 0
KTA1 170701Z 16014KT 28/19 A3002 RMK A01 T02800185  RH  056%=      5-min Rain = 0
KTA1 170702Z 16012KT 28/19 A3002 RMK A01 T02800185  RH  056%=      5-min Rain = 0
KTA1 170703Z 16012KT 28/19 A3002 RMK A01 T02800185  RH  056%=      5-min Rain = 0
KTA1 170704Z 16011KT 28/19 A3002 RMK A01 T02800185  RH  056%=      5-min Rain = 0
KTA1 170705Z 16011KT 28/19 A3002 RMK A01 T02790185  RH  057%=      5-min Rain = 0
KTA1 170706Z 16011KT 28/19 A3002 RMK A01 T02790186  RH  057%=      5-min Rain = 0
KTA1 170707Z 15009KT 28/19 A3002 RMK A01 T02790185  RH  057%=      5-min Rain = 0
KTA1 170708Z 15011KT 28/19 A3002 RMK A01 T02780185  RH  057%=      5-min Rain = 0
KTA1 170709Z 15012KT 28/19 A3002 RMK A01 T02780185  RH  057%=      5-min Rain = 0
KTA1 170710Z 15011KT 28/19 A3002 RMK A01 T02780186  RH  057%=      5-min Rain = 0
KTA1 170711Z 16010KT 28/19 A3002 RMK A01 T02780185  RH  057%=      5-min Rain = 0
KTA1 170712Z 16011KT 28/19 A3002 RMK A01 T02770185  RH  057%=      5-min Rain = 0
KTA1 170713Z 16012KT 28/19 A3002 RMK A01 T02770186  RH  057%=      5-min Rain = 0
KTA1 170714Z 16011KT 28/19 A3002 RMK A01 T02770186  RH  057%=      5-min Rain = 0
KTA1 170715Z 16010KT 28/19 A3002 RMK A01 T02770185  RH  058%=      5-min Rain = 0
KTA1 170716Z 16012KT 28/19 A3002 RMK A01 T02760185  RH  058%=      5-min Rain = 0
KTA1 170717Z 16010KT 28/19 A3002 RMK A01 T02760185  RH  058%=      5-min Rain = 0
KTA1 170718Z 15010KT 28/19 A3002 RMK A01 T02760185  RH  058%=      5-min Rain = 0
KTA1 170719Z 16011KT 28/19 A3002 RMK A01 T02750186  RH  058%=      5-min Rain = 0
KTA1 170720Z 16012KT 28/19 A3002 RMK A01 T02750185  RH  058%=      5-min Rain = 0
KTA1 170721Z 16011KT 28/19 A3002 RMK A01 T02750185  RH  058%=      5-min Rain = 0
KTA1 170722Z 16011KT 28/19 A3003 RMK A01 T02750185  RH  058%=      5-min Rain = 0
KTA1 170723Z 16010KT 28/19 A3003 RMK A01 T02750186  RH  058%=      5-min Rain = 0
KTA1 170724Z 16011KT 28/19 A3003 RMK A01 T02750186  RH  058%=      5-min Rain = 0
KTA1 170725Z 16009KT 28/19 A3003 RMK A01 T02750186  RH  058%=      5-min Rain = 0
KTA1 170726Z 16009KT 27/19 A3003 RMK A01 T02740186  RH  058%=      5-min Rain = 0
KTA1 170727Z 16009KT 27/19 A3002 RMK A01 T02740186  RH  059%=      5-min Rain = 0
KTA1 170728Z 16009KT 27/19 A3002 RMK A01 T02740186  RH  059%=      5-min Rain = 0
KTA1 170729Z 16009KT 27/19 A3002 RMK A01 T02740186  RH  059%=      5-min Rain = 0
KTA1 170730Z 15011KT 27/19 A3002 RMK A01 T02730186  RH  059%=      5-min Rain = 0
KTA1 170731Z 16011KT 27/19 A3002 RMK A01 T02730186  RH  059%=      5-min Rain = 0
KTA1 170732Z 16011KT 27/19 A3002 RMK A01 T02730186  RH  059%=      5-min Rain = 0
KTA1 170733Z 16011KT 27/19 A3002 RMK A01 T02730186  RH  059%=      5-min Rain = 0
KTA1 170734Z 16010KT 27/19 A3002 RMK A01 T02730186  RH  059%=      5-min Rain = 0
KTA1 170735Z 16012KT 27/19 A3002 RMK A01 T02730186  RH  059%=      5-min Rain = 0
KTA1 170736Z 16012KT 27/19 A3002 RMK A01 T02730187  RH  059%=      5-min Rain = 0
KTA1 170737Z 16012KT 27/19 A3002 RMK A01 T02730187  RH  059%=      5-min Rain = 0
KTA1 170738Z 16013KT 27/19 A3002 RMK A01 T02740187  RH  059%=      5-min Rain = 0
KTA1 170739Z 16012KT 27/19 A3002 RMK A01 T02740187  RH  059%=      5-min Rain = 0
KTA1 170740Z 16010KT 27/19 A3002 RMK A01 T02740187  RH  059%=      5-min Rain = 0
KTA1 170741Z 16011KT 27/19 A3002 RMK A01 T02740187  RH  059%=      5-min Rain = 0
KTA1 170742Z 16011KT 27/19 A3002 RMK A01 T02730187  RH  059%=      5-min Rain = 0
KTA1 170743Z 16012KT 27/19 A3002 RMK A01 T02730187  RH  059%=      5-min Rain = 0
KTA1 170744Z 16012KT 27/19 A3002 RMK A01 T02730187  RH  059%=      5-min Rain = 0
KTA1 170745Z 16012KT 27/19 A3002 RMK A01 T02730187  RH  059%=      5-min Rain = 0
KTA1 170746Z 16011KT 27/19 A3002 RMK A01 T02730187  RH  059%=      5-min Rain = 0
KTA1 170747Z 16011KT 27/19 A3002 RMK A01 T02730187  RH  059%=      5-min Rain = 0
KTA1 170748Z 16012KT 27/19 A3002 RMK A01 T02730187  RH  059%=      5-min Rain = 0
KTA1 170749Z 16011KT 27/19 A3002 RMK A01 T02730187  RH  060%=      5-min Rain = 0
KTA1 170750Z 16010G15KT 27/19 A3002 RMK A01 T02720187  RH  060%=      5-min Rain = 0
KTA1 170751Z 16012KT 27/19 A3002 RMK A01 T02720187  RH  060%=      5-min Rain = 0
KTA1 170752Z 16012KT 27/19 A3002 RMK A01 T02720187  RH  060%=      5-min Rain = 0
KTA1 170753Z 16012KT 27/19 A3002 RMK A01 T02720188  RH  060%=      5-min Rain = 0
KTA1 170754Z 16011KT 27/19 A3002 RMK A01 T02720188  RH  060%=      5-min Rain = 0
KTA1 170755Z 16010KT 27/19 A3002 RMK A01 T02710187  RH  060%=      5-min Rain = 0
KTA1 170756Z 16011KT 27/19 A3002 RMK A01 T02710188  RH  060%=      5-min Rain = 0
KTA1 170757Z 16011KT 27/19 A3002 RMK A01 T02710188  RH  060%=      5-min Rain = 0
KTA1 170758Z 16009KT 27/19 A3002 RMK A01 T02710188  RH  060%=      5-min Rain = 0
KTA1 170759Z 16011KT 27/19 A3002 RMK A01 T02700188  RH  061%=      5-min Rain = 0
KTA1 170800Z 16009KT 27/19 A3002 RMK A01 T02700188  RH  061%=      5-min Rain = 0
KTA1 170801Z 16012KT 27/19 A3002 RMK A01 T02700188  RH  061%=      5-min Rain = 0
KTA1 170802Z 16012KT 27/19 A3002 RMK A01 T02690187  RH  061%=      5-min Rain = 0
KTA1 170803Z 16010G16KT 27/19 A3002 RMK A01 T02700187  RH  061%=      5-min Rain = 0
KTA1 170804Z 16010KT 27/19 A3002 RMK A01 T02700187  RH  061%=      5-min Rain = 0
KTA1 170805Z 15013KT 27/19 A3002 RMK A01 T02700187  RH  061%=      5-min Rain = 0
KTA1 170806Z 16010KT 27/19 A3002 RMK A01 T02700188  RH  061%=      5-min Rain = 0
KTA1 170807Z 16010KT 27/19 A3002 RMK A01 T02700188  RH  061%=      5-min Rain = 0
KTA1 170808Z 16011KT 27/19 A3002 RMK A01 T02700188  RH  061%=      5-min Rain = 0
KTA1 170809Z 16009KT 27/19 A3002 RMK A01 T02700188  RH  061%=      5-min Rain = 0
KTA1 170810Z 15009KT 27/19 A3002 RMK A01 T02690188  RH  061%=      5-min Rain = 0
KTA1 170811Z 15010KT 27/19 A3002 RMK A01 T02690188  RH  061%=      5-min Rain = 0
KTA1 170812Z 15010KT 27/19 A3002 RMK A01 T02680188  RH  061%=      5-min Rain = 0
KTA1 170813Z 15009KT 27/19 A3002 RMK A01 T02680188  RH  061%=      5-min Rain = 0
KTA1 170814Z 15009KT 27/19 A3002 RMK A01 T02670187  RH  061%=      5-min Rain = 0
KTA1 170815Z 15010KT 27/19 A3002 RMK A01 T02670187  RH  062%=      5-min Rain = 0
KTA1 170816Z 16010KT 27/19 A3002 RMK A01 T02670188  RH  062%=      5-min Rain = 0
KTA1 170817Z 15010KT 27/19 A3002 RMK A01 T02670188  RH  062%=      5-min Rain = 0
KTA1 170818Z 16010KT 27/19 A3002 RMK A01 T02670188  RH  062%=      5-min Rain = 0
KTA1 170819Z 16011KT 27/19 A3002 RMK A01 T02670188  RH  062%=      5-min Rain = 0
KTA1 170820Z 15011KT 27/19 A3002 RMK A01 T02670187  RH  062%=      5-min Rain = 0
KTA1 170821Z 16010KT 27/19 A3002 RMK A01 T02670187  RH  062%=      5-min Rain = 0
KTA1 170822Z 16010KT 27/19 A3002 RMK A01 T02670187  RH  061%=      5-min Rain = 0
KTA1 170823Z 16011KT 27/19 A3002 RMK A01 T02670187  RH  061%=      5-min Rain = 0
KTA1 170824Z 16011KT 27/19 A3002 RMK A01 T02670187  RH  061%=      5-min Rain = 0
KTA1 170825Z 16012KT 27/19 A3002 RMK A01 T02670187  RH  061%=      5-min Rain = 0
KTA1 170826Z 16011KT 27/19 A3002 RMK A01 T02670187  RH  061%=      5-min Rain = 0
KTA1 170827Z 16012KT 27/19 A3002 RMK A01 T02680187  RH  061%=      5-min Rain = 0
KTA1 170828Z 16011KT 27/19 A3002 RMK A01 T02680186  RH  061%=      5-min Rain = 0
KTA1 170829Z 16010KT 27/19 A3002 RMK A01 T02680186  RH  061%=      5-min Rain = 0
KTA1 170830Z 16011KT 27/19 A3002 RMK A01 T02680186  RH  061%=      5-min Rain = 0
KTA1 170831Z 16013KT 27/19 A3002 RMK A01 T02680186  RH  061%=      5-min Rain = 0
KTA1 170832Z 16009KT 27/19 A3002 RMK A01 T02680186  RH  061%=      5-min Rain = 0
KTA1 170833Z 15011KT 27/19 A3002 RMK A01 T02670186  RH  061%=      5-min Rain = 0
KTA1 170834Z 16012KT 27/19 A3002 RMK A01 T02670186  RH  061%=      5-min Rain = 0
KTA1 170835Z 16012KT 27/19 A3002 RMK A01 T02670186  RH  061%=      5-min Rain = 0
KTA1 170836Z 16012KT 27/19 A3002 RMK A01 T02670186  RH  061%=      5-min Rain = 0
KTA1 170837Z 15011KT 27/19 A3002 RMK A01 T02670186  RH  061%=      5-min Rain = 0
KTA1 170838Z 16011KT 27/19 A3002 RMK A01 T02670186  RH  061%=      5-min Rain = 0
KTA1 170839Z 15011KT 27/19 A3002 RMK A01 T02670186  RH  061%=      5-min Rain = 0
KTA1 170840Z 15011KT 27/19 A3002 RMK A01 T02670186  RH  061%=      5-min Rain = 0
KTA1 170841Z 15011KT 27/19 A3002 RMK A01 T02660186  RH  061%=      5-min Rain = 0
KTA1 170842Z 15012KT 27/19 A3002 RMK A01 T02660186  RH  061%=      5-min Rain = 0
KTA1 170843Z 15011KT 27/19 A3002 RMK A01 T02660186  RH  061%=      5-min Rain = 0
KTA1 170844Z 16011KT 27/19 A3002 RMK A01 T02660186  RH  061%=      5-min Rain = 0
KTA1 170845Z 15012KT 27/19 A3002 RMK A01 T02660186  RH  061%=      5-min Rain = 0
KTA1 170846Z 15012G17KT 27/19 A3002 RMK A01 T02660186  RH  061%=      5-min Rain = 0
KTA1 170847Z 16013KT 27/19 A3002 RMK A01 T02670186  RH  061%=      5-min Rain = 0
KTA1 170848Z 16013KT 27/19 A3002 RMK A01 T02670186  RH  061%=      5-min Rain = 0
KTA1 170849Z 15012KT 27/19 A3002 RMK A01 T02670186  RH  061%=      5-min Rain = 0
KTA1 170850Z 15010G15KT 27/19 A3002 RMK A01 T02670186  RH  061%=      5-min Rain = 0
KTA1 170851Z 16011KT 27/19 A3002 RMK A01 T02670186  RH  061%=      5-min Rain = 0
KTA1 170852Z 16012KT 27/19 A3002 RMK A01 T02660186  RH  061%=      5-min Rain = 0
KTA1 170853Z 16012KT 27/19 A3002 RMK A01 T02660186  RH  062%=      5-min Rain = 0
KTA1 170854Z 16011KT 27/19 A3002 RMK A01 T02660186  RH  062%=      5-min Rain = 0
KTA1 170855Z 16011KT 27/19 A3002 RMK A01 T02660186  RH  062%=      5-min Rain = 0
KTA1 170856Z 16010KT 27/19 A3002 RMK A01 T02660186  RH  062%=      5-min Rain = 0
KTA1 170857Z 16011KT 27/19 A3002 RMK A01 T02650186  RH  062%=      5-min Rain = 0
KTA1 170858Z 16010KT 27/19 A3002 RMK A01 T02650186  RH  062%=      5-min Rain = 0
KTA1 170859Z 16009KT 27/19 A3002 RMK A01 T02650186  RH  062%=      5-min Rain = 0
KTA1 170900Z 15008KT 26/19 A3002 RMK A01 T02640186  RH  062%=      5-min Rain = 0
KTA1 170901Z 16011KT 26/19 A3002 RMK A01 T02640186  RH  062%=      5-min Rain = 0
KTA1 170902Z 15010KT 26/19 A3002 RMK A01 T02640186  RH  062%=      5-min Rain = 0
KTA1 170903Z 15009KT 26/19 A3002 RMK A01 T02640186  RH  062%=      5-min Rain = 0
KTA1 170904Z 16010KT 26/19 A3002 RMK A01 T02640186  RH  062%=      5-min Rain = 0
KTA1 170905Z 15011KT 26/19 A3002 RMK A01 T02640186  RH  062%=      5-min Rain = 0
KTA1 170906Z 15011KT 26/19 A3002 RMK A01 T02640186  RH  062%=      5-min Rain = 0
KTA1 170907Z 15011KT 26/19 A3002 RMK A01 T02640186  RH  062%=      5-min Rain = 0
KTA1 170908Z 16011KT 26/19 A3002 RMK A01 T02630186  RH  063%=      5-min Rain = 0
KTA1 170909Z 16009KT 26/19 A3002 RMK A01 T02630186  RH  063%=      5-min Rain = 0
KTA1 170910Z 15009KT 26/19 A3002 RMK A01 T02630186  RH  063%=      5-min Rain = 0
KTA1 170911Z 15009KT 26/19 A3002 RMK A01 T02620186  RH  063%=      5-min Rain = 0
KTA1 170912Z 15011KT 26/19 A3002 RMK A01 T02620186  RH  063%=      5-min Rain = 0
KTA1 170913Z 16012KT 26/19 A3002 RMK A01 T02620186  RH  063%=      5-min Rain = 0
KTA1 170914Z 15009KT 26/19 A3002 RMK A01 T02620186  RH  063%=      5-min Rain = 0
KTA1 170915Z 15010KT 26/19 A3002 RMK A01 T02610186  RH  063%=      5-min Rain = 0
KTA1 170916Z 16010KT 26/19 A3002 RMK A01 T02610186  RH  063%=      5-min Rain = 0
KTA1 170917Z 15009KT 26/19 A3002 RMK A01 T02610186  RH  063%=      5-min Rain = 0
KTA1 170918Z 16012G17KT 26/19 A3002 RMK A01 T02600186  RH  064%=      5-min Rain = 0
KTA1 170919Z 16010KT 26/19 A3002 RMK A01 T02600186  RH  064%=      5-min Rain = 0
KTA1 170920Z 15010KT 26/19 A3002 RMK A01 T02600186  RH  064%=      5-min Rain = 0
KTA1 170921Z 16010KT 26/19 A3002 RMK A01 T02600187  RH  064%=      5-min Rain = 0
KTA1 170922Z 15010KT 26/19 A3002 RMK A01 T02600186  RH  064%=      5-min Rain = 0
KTA1 170923Z 16010KT 26/19 A3002 RMK A01 T02600186  RH  064%=      5-min Rain = 0
KTA1 170924Z 16011KT 26/19 A3002 RMK A01 T02600187  RH  064%=      5-min Rain = 0
KTA1 170925Z 16011KT 26/19 A3002 RMK A01 T02600187  RH  064%=      5-min Rain = 0
KTA1 170926Z 16011KT 26/19 A3002 RMK A01 T02600187  RH  064%=      5-min Rain = 0
KTA1 170927Z 16009KT 26/19 A3002 RMK A01 T02600187  RH  064%=      5-min Rain = 0
KTA1 170928Z 16009KT 26/19 A3002 RMK A01 T02590187  RH  064%=      5-min Rain = 0
KTA1 170929Z 16009KT 26/19 A3002 RMK A01 T02590187  RH  064%=      5-min Rain = 0
KTA1 170930Z 16011KT 26/19 A3002 RMK A01 T02590187  RH  064%=      5-min Rain = 0
KTA1 170931Z 16011KT 26/19 A3002 RMK A01 T02590187  RH  064%=      5-min Rain = 0
KTA1 170932Z 16011KT 26/19 A3003 RMK A01 T02590187  RH  064%=      5-min Rain = 0
KTA1 170933Z 16010KT 26/19 A3003 RMK A01 T02590187  RH  064%=      5-min Rain = 0
KTA1 170934Z 16013KT 26/19 A3002 RMK A01 T02590187  RH  065%=      5-min Rain = 0
KTA1 170935Z 16012KT 26/19 A3002 RMK A01 T02590187  RH  065%=      5-min Rain = 0
KTA1 170936Z 16011KT 26/19 A3002 RMK A01 T02590188  RH  065%=      5-min Rain = 0
KTA1 170937Z 16010KT 26/19 A3002 RMK A01 T02590187  RH  065%=      5-min Rain = 0
KTA1 170938Z 16012KT 26/19 A3002 RMK A01 T02590188  RH  065%=      5-min Rain = 0
KTA1 170939Z 16012KT 26/19 A3002 RMK A01 T02580188  RH  065%=      5-min Rain = 0
KTA1 170940Z 16010KT 26/19 A3002 RMK A01 T02580188  RH  065%=      5-min Rain = 0
KTA1 170941Z 16009KT 26/19 A3002 RMK A01 T02580187  RH  065%=      5-min Rain = 0
KTA1 170942Z 16012KT 26/19 A3002 RMK A01 T02570187  RH  065%=      5-min Rain = 0
KTA1 170943Z 16010KT 26/19 A3002 RMK A01 T02570188  RH  065%=      5-min Rain = 0
KTA1 170944Z 16012KT 26/19 A3003 RMK A01 T02570188  RH  065%=      5-min Rain = 0
KTA1 170945Z 16010KT 26/19 A3003 RMK A01 T02570188  RH  066%=      5-min Rain = 0
KTA1 170946Z 16010KT 26/19 A3002 RMK A01 T02570188  RH  066%=      5-min Rain = 0
KTA1 170947Z 16012KT 26/19 A3002 RMK A01 T02570188  RH  066%=      5-min Rain = 0
KTA1 170948Z 16012KT 26/19 A3002 RMK A01 T02570188  RH  066%=      5-min Rain = 0
KTA1 170949Z 16011KT 26/19 A3002 RMK A01 T02570188  RH  066%=      5-min Rain = 0
KTA1 170950Z 16012KT 26/19 A3002 RMK A01 T02570188  RH  066%=      5-min Rain = 0
KTA1 170951Z 16010KT 26/19 A3002 RMK A01 T02560188  RH  066%=      5-min Rain = 0
KTA1 170952Z 16010KT 26/19 A3002 RMK A01 T02560188  RH  066%=      5-min Rain = 0
KTA1 170953Z 16011KT 26/19 A3002 RMK A01 T02560188  RH  066%=      5-min Rain = 0
KTA1 170954Z 16010KT 26/19 A3002 RMK A01 T02560188  RH  066%=      5-min Rain = 0
KTA1 170955Z 16011KT 26/19 A3002 RMK A01 T02560189  RH  066%=      5-min Rain = 0
KTA1 170956Z 16012G17KT 26/19 A3002 RMK A01 T02560189  RH  066%=      5-min Rain = 0
KTA1 170957Z 16011KT 26/19 A3002 RMK A01 T02560189  RH  066%=      5-min Rain = 0
KTA1 170958Z 17010KT 26/19 A3002 RMK A01 T02560188  RH  066%=      5-min Rain = 0
KTA1 170959Z 16012KT 26/19 A3002 RMK A01 T02560189  RH  066%=      5-min Rain = 0
KTA1 171000Z 16014KT 26/19 A3002 RMK A01 T02560189  RH  066%=      5-min Rain = 0
KTA1 171001Z 16011KT 26/19 A3002 RMK A01 T02560189  RH  066%=      5-min Rain = 0
KTA1 171002Z 16013KT 26/19 A3002 RMK A01 T02560189  RH  066%=      5-min Rain = 0
KTA1 171003Z 16010KT 26/19 A3002 RMK A01 T02560189  RH  067%=      5-min Rain = 0
KTA1 171004Z 16010KT 26/19 A3002 RMK A01 T02560190  RH  067%=      5-min Rain = 0
KTA1 171005Z 16011KT 26/19 A3002 RMK A01 T02560190  RH  067%=      5-min Rain = 0
KTA1 171006Z 16011KT 26/19 A3002 RMK A01 T02550190  RH  067%=      5-min Rain = 0
KTA1 171007Z 16010KT 26/19 A3002 RMK A01 T02550190  RH  067%=      5-min Rain = 0
KTA1 171008Z 16009KT 26/19 A3002 RMK A01 T02550189  RH  067%=      5-min Rain = 0
KTA1 171009Z 16012KT 26/19 A3002 RMK A01 T02550190  RH  067%=      5-min Rain = 0
KTA1 171010Z 16015KT 26/19 A3002 RMK A01 T02550190  RH  067%=      5-min Rain = 0
KTA1 171011Z 16012KT 26/19 A3002 RMK A01 T02550190  RH  067%=      5-min Rain = 0
KTA1 171012Z 16012KT 26/19 A3002 RMK A01 T02550190  RH  067%=      5-min Rain = 0
KTA1 171013Z 16012KT 26/19 A3002 RMK A01 T02550190  RH  067%=      5-min Rain = 0
KTA1 171014Z 16012G17KT 26/19 A3002 RMK A01 T02550190  RH  067%=      5-min Rain = 0
KTA1 171015Z 16015KT 26/19 A3002 RMK A01 T02550190  RH  067%=      5-min Rain = 0
KTA1 171016Z 16011KT 26/19 A3002 RMK A01 T02550190  RH  068%=      5-min Rain = 0
KTA1 171017Z 16012KT 26/19 A3001 RMK A01 T02550191  RH  068%=      5-min Rain = 0
KTA1 171018Z 16013KT 26/19 A3001 RMK A01 T02550191  RH  068%=      5-min Rain = 0
KTA1 171019Z 16013KT 25/19 A3001 RMK A01 T02540191  RH  068%=      5-min Rain = 0
KTA1 171020Z 16011KT 25/19 A3001 RMK A01 T02540191  RH  068%=      5-min Rain = 0
KTA1 171021Z 16012KT 25/19 A3001 RMK A01 T02540191  RH  068%=      5-min Rain = 0
KTA1 171022Z 16015KT 25/19 A3001 RMK A01 T02540191  RH  068%=      5-min Rain = 0
KTA1 171023Z 16012KT 25/19 A3001 RMK A01 T02540191  RH  068%=      5-min Rain = 0
KTA1 171024Z 16012KT 25/19 A3001 RMK A01 T02540191  RH  068%=      5-min Rain = 0
KTA1 171025Z 16014KT 25/19 A3001 RMK A01 T02530191  RH  068%=      5-min Rain = 0
KTA1 171026Z 16016KT 25/19 A3001 RMK A01 T02530191  RH  068%=      5-min Rain = 0
KTA1 171027Z 16014KT 25/19 A3001 RMK A01 T02530191  RH  068%=      5-min Rain = 0
KTA1 171028Z 16012KT 25/19 A3001 RMK A01 T02540191  RH  068%=      5-min Rain = 0
KTA1 171029Z 16013KT 25/19 A3001 RMK A01 T02530191  RH  068%=      5-min Rain = 0
KTA1 171030Z 16012KT 25/19 A3001 RMK A01 T02540192  RH  068%=      5-min Rain = 0
KTA1 171031Z 16011KT 25/19 A3001 RMK A01 T02530191  RH  069%=      5-min Rain = 0
KTA1 171032Z 16015KT 25/19 A3002 RMK A01 T02530191  RH  069%=      5-min Rain = 0
KTA1 171033Z 16014KT 25/19 A3002 RMK A01 T02530191  RH  069%=      5-min Rain = 0
KTA1 171034Z 16014KT 25/19 A3002 RMK A01 T02530192  RH  069%=      5-min Rain = 0
KTA1 171035Z 17010KT 25/19 A3002 RMK A01 T02530191  RH  069%=      5-min Rain = 0
KTA1 171036Z 17013KT 25/19 A3002 RMK A01 T02530191  RH  069%=      5-min Rain = 0
KTA1 171037Z 16012KT 25/19 A3002 RMK A01 T02530192  RH  069%=      5-min Rain = 0
KTA1 171038Z 16011KT 25/19 A3002 RMK A01 T02530192  RH  069%=      5-min Rain = 0
KTA1 171039Z 17012KT 25/19 A3002 RMK A01 T02530192  RH  069%=      5-min Rain = 0
KTA1 171040Z 17010KT 25/19 A3002 RMK A01 T02520191  RH  069%=      5-min Rain = 0
KTA1 171041Z 16011KT 25/19 A3002 RMK A01 T02520192  RH  069%=      5-min Rain = 0
KTA1 171042Z 17015KT 25/19 A3002 RMK A01 T02520192  RH  069%=      5-min Rain = 0
KTA1 171043Z 16013KT 25/19 A3002 RMK A01 T02520192  RH  069%=      5-min Rain = 0
KTA1 171044Z 16012G17KT 25/19 A3002 RMK A01 T02520192  RH  069%=      5-min Rain = 0
KTA1 171045Z 16015KT 25/19 A3001 RMK A01 T02520192  RH  069%=      5-min Rain = 0
KTA1 171046Z 16012KT 25/19 A3002 RMK A01 T02520192  RH  069%=      5-min Rain = 0
KTA1 171047Z 16013KT 25/19 A3001 RMK A01 T02520192  RH  069%=      5-min Rain = 0
KTA1 171048Z 16013KT 25/19 A3001 RMK A01 T02520192  RH  069%=      5-min Rain = 0
KTA1 171049Z 16014G19KT 25/19 A3001 RMK A01 T02520192  RH  069%=      5-min Rain = 0
KTA1 171050Z 16012KT 25/19 A3001 RMK A01 T02510192  RH  069%=      5-min Rain = 0
KTA1 171051Z 16013KT 25/19 A3001 RMK A01 T02510192  RH  070%=      5-min Rain = 0
KTA1 171052Z 16017G22KT 25/19 A3001 RMK A01 T02510192  RH  070%=      5-min Rain = 0
KTA1 171053Z 16012KT 25/19 A3001 RMK A01 T02510192  RH  070%=      5-min Rain = 0
KTA1 171054Z 16012KT 25/19 A3001 RMK A01 T02510192  RH  070%=      5-min Rain = 0
KTA1 171055Z 16012KT 25/19 A3001 RMK A01 T02510192  RH  070%=      5-min Rain = 0
KTA1 171056Z 16012KT 25/19 A3001 RMK A01 T02500192  RH  070%=      5-min Rain = 0
KTA1 171057Z 16012KT 25/19 A3001 RMK A01 T02500192  RH  070%=      5-min Rain = 0
KTA1 171058Z 16011KT 25/19 A3001 RMK A01 T02500192  RH  070%=      5-min Rain = 0
KTA1 171059Z 16012KT 25/19 A3001 RMK A01 T02490192  RH  071%=      5-min Rain = 0
KTA1 171100Z 17011KT 25/19 A3001 RMK A01 T02490192  RH  071%=      5-min Rain = 0
KTA1 171101Z 16011KT 25/19 A3002 RMK A01 T02490192  RH  071%=      5-min Rain = 0
KTA1 171102Z 16013G18KT 25/19 A3002 RMK A01 T02490192  RH  071%=      5-min Rain = 0
KTA1 171103Z 17012KT 25/19 A3002 RMK A01 T02490192  RH  071%=      5-min Rain = 0
KTA1 171104Z 16011KT 25/19 A3002 RMK A01 T02490192  RH  071%=      5-min Rain = 0
KTA1 171105Z 16011KT 25/19 A3002 RMK A01 T02490192  RH  071%=      5-min Rain = 0
KTA1 171106Z 17013KT 25/19 A3002 RMK A01 T02490192  RH  071%=      5-min Rain = 0
KTA1 171107Z 17013KT 25/19 A3002 RMK A01 T02490193  RH  071%=      5-min Rain = 0
KTA1 171108Z 17012KT 25/19 A3002 RMK A01 T02490193  RH  071%=      5-min Rain = 0
KTA1 171109Z 17009KT 25/19 A3002 RMK A01 T02490193  RH  071%=      5-min Rain = 0
KTA1 171110Z 16012KT 25/19 A3002 RMK A01 T02480193  RH  071%=      5-min Rain = 0
KTA1 171111Z 17011KT 25/19 A3002 RMK A01 T02480193  RH  071%=      5-min Rain = 0
KTA1 171112Z 17011KT 25/19 A3002 RMK A01 T02480193  RH  071%=      5-min Rain = 0
KTA1 171113Z 17012KT 25/19 A3002 RMK A01 T02480192  RH  071%=      5-min Rain = 0
KTA1 171114Z 17011KT 25/19 A3002 RMK A01 T02480192  RH  071%=      5-min Rain = 0
KTA1 171115Z 17012KT 25/19 A3002 RMK A01 T02480192  RH  071%=      5-min Rain = 0
KTA1 171116Z 17011KT 25/19 A3002 RMK A01 T02480192  RH  071%=      5-min Rain = 0
KTA1 171117Z 17013KT 25/19 A3002 RMK A01 T02480192  RH  071%=      5-min Rain = 0
KTA1 171118Z 17013KT 25/19 A3002 RMK A01 T02480192  RH  071%=      5-min Rain = 0
KTA1 171119Z 17011KT 25/19 A3002 RMK A01 T02480192  RH  071%=      5-min Rain = 0
KTA1 171120Z 17011KT 25/19 A3002 RMK A01 T02470192  RH  071%=      5-min Rain = 0
KTA1 171121Z 16011KT 25/19 A3002 RMK A01 T02470192  RH  071%=      5-min Rain = 0
KTA1 171122Z 17011KT 25/19 A3002 RMK A01 T02480193  RH  071%=      5-min Rain = 0
KTA1 171123Z 17012KT 25/19 A3002 RMK A01 T02470192  RH  072%=      5-min Rain = 0
KTA1 171124Z 16012KT 25/19 A3003 RMK A01 T02470193  RH  072%=      5-min Rain = 0
KTA1 171125Z 16012KT 25/19 A3003 RMK A01 T02470193  RH  072%=      5-min Rain = 0
KTA1 171126Z 16013KT 25/19 A3003 RMK A01 T02460192  RH  072%=      5-min Rain = 0
KTA1 171127Z 16011KT 25/19 A3003 RMK A01 T02460192  RH  072%=      5-min Rain = 0
KTA1 171128Z 16011KT 25/19 A3003 RMK A01 T02450192  RH  072%=      5-min Rain = 0
KTA1 171129Z 16012KT 25/19 A3003 RMK A01 T02450192  RH  072%=      5-min Rain = 0
KTA1 171130Z 17012KT 25/19 A3003 RMK A01 T02460193  RH  072%=      5-min Rain = 0
KTA1 171131Z 16010KT 25/19 A3003 RMK A01 T02460193  RH  072%=      5-min Rain = 0
KTA1 171132Z 16009KT 25/19 A3003 RMK A01 T02460193  RH  072%=      5-min Rain = 0
KTA1 171133Z 16010KT 25/19 A3003 RMK A01 T02450193  RH  072%=      5-min Rain = 0
KTA1 171134Z 17012KT 25/19 A3003 RMK A01 T02450193  RH  073%=      5-min Rain = 0
KTA1 171135Z 17009G16KT 25/19 A3003 RMK A01 T02450193  RH  073%=      5-min Rain = 0
KTA1 171136Z 16013KT 25/19 A3003 RMK A01 T02450193  RH  073%=      5-min Rain = 0
KTA1 171137Z 16010KT 25/19 A3003 RMK A01 T02450193  RH  073%=      5-min Rain = 0
KTA1 171138Z 16011KT 24/19 A3003 RMK A01 T02440193  RH  073%=      5-min Rain = 0
KTA1 171139Z 17011KT 24/19 A3003 RMK A01 T02440193  RH  073%=      5-min Rain = 0
KTA1 171140Z 17011KT 24/19 A3003 RMK A01 T02440193  RH  073%=      5-min Rain = 0
KTA1 171141Z 16011KT 24/19 A3003 RMK A01 T02430193  RH  074%=      5-min Rain = 0
KTA1 171142Z 16009KT 24/19 A3003 RMK A01 T02440194  RH  074%=      5-min Rain = 0
KTA1 171143Z 16010KT 24/19 A3003 RMK A01 T02430194  RH  074%=      5-min Rain = 0
KTA1 171144Z 16012KT 24/19 A3003 RMK A01 T02430193  RH  074%=      5-min Rain = 0
KTA1 171145Z 16011KT 24/19 A3003 RMK A01 T02430193  RH  074%=      5-min Rain = 0
KTA1 171146Z 16011KT 24/19 A3003 RMK A01 T02430194  RH  074%=      5-min Rain = 0
KTA1 171147Z 17009KT 24/19 A3003 RMK A01 T02430194  RH  074%=      5-min Rain = 0
KTA1 171148Z 16009KT 24/19 A3003 RMK A01 T02430194  RH  074%=      5-min Rain = 0
KTA1 171149Z 17009KT 24/19 A3003 RMK A01 T02430194  RH  074%=      5-min Rain = 0
KTA1 171150Z 16010KT 24/19 A3003 RMK A01 T02420194  RH  074%=      5-min Rain = 0
KTA1 171151Z 17011KT 24/19 A3003 RMK A01 T02420194  RH  074%=      5-min Rain = 0
KTA1 171152Z 16010KT 24/19 A3003 RMK A01 T02420194  RH  074%=      5-min Rain = 0
KTA1 171153Z 17010KT 24/19 A3003 RMK A01 T02420194  RH  074%=      5-min Rain = 0
KTA1 171154Z 17011KT 24/19 A3003 RMK A01 T02420194  RH  075%=      5-min Rain = 0
KTA1 171155Z 17009KT 24/19 A3003 RMK A01 T02420194  RH  074%=      5-min Rain = 0
KTA1 171156Z 17009KT 24/19 A3004 RMK A01 T02420193  RH  074%=      5-min Rain = 0
KTA1 171157Z 18007KT 24/19 A3004 RMK A01 T02420194  RH  074%=      5-min Rain = 0
KTA1 171158Z 16008KT 24/19 A3004 RMK A01 T02420194  RH  075%=      5-min Rain = 0
KTA1 171159Z 17007KT 24/19 A3004 RMK A01 T02420194  RH  075%=      5-min Rain = 0
KTA1 171200Z 17009G14KT 24/19 A3004 RMK A01 T02420194  RH  075%=      5-min Rain = 0
KTA1 171201Z 17009KT 24/19 A3004 RMK A01 T02420194  RH  075%=      5-min Rain = 0
KTA1 171202Z 17008KT 24/19 A3004 RMK A01 T02420194  RH  074%=      5-min Rain = 0
KTA1 171203Z 17010KT 24/19 A3004 RMK A01 T02420194  RH  074%=      5-min Rain = 0
KTA1 171204Z 17009KT 24/19 A3004 RMK A01 T02420193  RH  074%=      5-min Rain = 0
KTA1 171205Z 17011KT 24/19 A3004 RMK A01 T02420194  RH  074%=      5-min Rain = 0
KTA1 171206Z 17011KT 24/19 A3004 RMK A01 T02420194  RH  074%=      5-min Rain = 0
KTA1 171207Z 16010KT 24/19 A3004 RMK A01 T02420194  RH  074%=      5-min Rain = 0
KTA1 171208Z 17008KT 24/19 A3004 RMK A01 T02420194  RH  074%=      5-min Rain = 0
KTA1 171209Z 17008KT 24/19 A3004 RMK A01 T02430194  RH  074%=      5-min Rain = 0
KTA1 171210Z 17010KT 24/19 A3004 RMK A01 T02430194  RH  074%=      5-min Rain = 0
KTA1 171211Z 17011KT 24/19 A3004 RMK A01 T02430194  RH  074%=      5-min Rain = 0
KTA1 171212Z 17011KT 24/19 A3004 RMK A01 T02430194  RH  074%=      5-min Rain = 0
KTA1 171213Z 17011KT 24/19 A3004 RMK A01 T02430194  RH  074%=      5-min Rain = 0
KTA1 171214Z 17010KT 24/19 A3004 RMK A01 T02430194  RH  074%=      5-min Rain = 0
KTA1 171215Z 17008KT 24/19 A3004 RMK A01 T02430194  RH  074%=      5-min Rain = 0
KTA1 171216Z 17010KT 24/19 A3004 RMK A01 T02430194  RH  074%=      5-min Rain = 0
KTA1 171217Z 17009KT 24/19 A3004 RMK A01 T02430194  RH  074%=      5-min Rain = 0
KTA1 171218Z 17009G15KT 24/19 A3004 RMK A01 T02430194  RH  074%=      5-min Rain = 0
KTA1 171219Z 17009KT 24/19 A3004 RMK A01 T02420194  RH  074%=      5-min Rain = 0
KTA1 171220Z 17011KT 24/19 A3004 RMK A01 T02420194  RH  074%=      5-min Rain = 0
KTA1 171221Z 17011KT 24/19 A3004 RMK A01 T02420194  RH  074%=      5-min Rain = 0
KTA1 171222Z 17011KT 24/19 A3004 RMK A01 T02420194  RH  074%=      5-min Rain = 0
KTA1 171223Z 17011KT 24/19 A3004 RMK A01 T02420194  RH  074%=      5-min Rain = 0
KTA1 171224Z 17010KT 24/19 A3004 RMK A01 T02420194  RH  075%=      5-min Rain = 0
KTA1 171225Z 17010KT 24/19 A3004 RMK A01 T02420194  RH  075%=      5-min Rain = 0
KTA1 171226Z 16011KT 24/19 A3004 RMK A01 T02420194  RH  075%=      5-min Rain = 0
KTA1 171227Z 17011KT 24/19 A3004 RMK A01 T02420194  RH  075%=      5-min Rain = 0
KTA1 171228Z 17011KT 24/19 A3004 RMK A01 T02420194  RH  075%=      5-min Rain = 0
KTA1 171229Z 17010KT 24/19 A3004 RMK A01 T02420194  RH  075%=      5-min Rain = 0
KTA1 171230Z 17009G14KT 24/19 A3004 RMK A01 T02420194  RH  075%=      5-min Rain = 0
KTA1 171231Z 16009KT 24/19 A3004 RMK A01 T02420194  RH  075%=      5-min Rain = 0
KTA1 171232Z 16009KT 24/19 A3004 RMK A01 T02420194  RH  075%=      5-min Rain = 0
KTA1 171233Z 16011KT 24/19 A3004 RMK A01 T02410194  RH  075%=      5-min Rain = 0
KTA1 171234Z 16010KT 24/19 A3004 RMK A01 T02410194  RH  075%=      5-min Rain = 0
KTA1 171235Z 17009KT 24/19 A3004 RMK A01 T02410194  RH  075%=      5-min Rain = 0
KTA1 171236Z 17010KT 24/19 A3004 RMK A01 T02410194  RH  075%=      5-min Rain = 0
KTA1 171237Z 17010KT 24/19 A3004 RMK A01 T02410194  RH  075%=      5-min Rain = 0
KTA1 171238Z 17009KT 24/19 A3004 RMK A01 T02410194  RH  075%=      5-min Rain = 0
KTA1 171239Z 17012KT 24/19 A3004 RMK A01 T02410194  RH  075%=      5-min Rain = 0
KTA1 171240Z 17010KT 24/19 A3004 RMK A01 T02410194  RH  075%=      5-min Rain = 0
KTA1 171241Z 17011KT 24/19 A3004 RMK A01 T02410194  RH  075%=      5-min Rain = 0
KTA1 171242Z 17010KT 24/19 A3004 RMK A01 T02410194  RH  075%=      5-min Rain = 0
KTA1 171243Z 17011KT 24/19 A3004 RMK A01 T02410194  RH  075%=      5-min Rain = 0
KTA1 171244Z 17010KT 24/19 A3004 RMK A01 T02420194  RH  075%=      5-min Rain = 0
KTA1 171245Z 17010KT 24/19 A3004 RMK A01 T02420194  RH  075%=      5-min Rain = 0
KTA1 171246Z 17010KT 24/19 A3004 RMK A01 T02420194  RH  075%=      5-min Rain = 0
KTA1 171247Z 16010KT 24/19 A3004 RMK A01 T02420194  RH  075%=      5-min Rain = 0
KTA1 171248Z 16011KT 24/20 A3004 RMK A01 T02420195  RH  075%=      5-min Rain = 0
KTA1 171249Z 17012KT 24/20 A3004 RMK A01 T02420195  RH  075%=      5-min Rain = 0
KTA1 171250Z 16012KT 24/20 A3004 RMK A01 T02420195  RH  075%=      5-min Rain = 0
KTA1 171251Z 16011KT 24/19 A3004 RMK A01 T02420194  RH  075%=      5-min Rain = 0
KTA1 171252Z 16011KT 24/20 A3004 RMK A01 T02430195  RH  075%=      5-min Rain = 0
KTA1 171253Z 16013KT 24/20 A3004 RMK A01 T02430195  RH  075%=      5-min Rain = 0
KTA1 171254Z 16011KT 24/20 A3004 RMK A01 T02430195  RH  074%=      5-min Rain = 0
KTA1 171255Z 17011KT 24/20 A3004 RMK A01 T02430195  RH  074%=      5-min Rain = 0
KTA1 171256Z 16010KT 24/20 A3004 RMK A01 T02430195  RH  074%=      5-min Rain = 0
KTA1 171257Z 16011KT 24/20 A3004 RMK A01 T02440195  RH  074%=      5-min Rain = 0
KTA1 171258Z 17011KT 24/20 A3004 RMK A01 T02440195  RH  074%=      5-min Rain = 0
KTA1 171259Z 16010KT 24/20 A3004 RMK A01 T02440195  RH  074%=      5-min Rain = 0
KTA1 171300Z 16011KT 25/20 A3004 RMK A01 T02450195  RH  074%=      5-min Rain = 0
KTA1 171301Z 16013KT 25/20 A3004 RMK A01 T02450195  RH  074%=      5-min Rain = 0
KTA1 171302Z 16010KT 25/20 A3004 RMK A01 T02450195  RH  074%=      5-min Rain = 0
KTA1 171303Z 16011KT 25/20 A3004 RMK A01 T02450196  RH  074%=      5-min Rain = 0
KTA1 171304Z 17010KT 25/20 A3004 RMK A01 T02450195  RH  074%=      5-min Rain = 0
KTA1 171305Z 17010KT 25/20 A3004 RMK A01 T02460196  RH  074%=      5-min Rain = 0
KTA1 171306Z 16011KT 25/20 A3004 RMK A01 T02460195  RH  073%=      5-min Rain = 0
KTA1 171307Z 16011KT 25/20 A3004 RMK A01 T02470196  RH  073%=      5-min Rain = 0
KTA1 171308Z 16012KT 25/20 A3004 RMK A01 T02460195  RH  073%=      5-min Rain = 0
KTA1 171309Z 16012KT 25/20 A3004 RMK A01 T02470195  RH  073%=      5-min Rain = 0
KTA1 171310Z 17011KT 25/20 A3004 RMK A01 T02460195  RH  073%=      5-min Rain = 0
KTA1 171311Z 17012KT 25/20 A3004 RMK A01 T02470195  RH  073%=      5-min Rain = 0
KTA1 171312Z 16010KT 25/20 A3004 RMK A01 T02470195  RH  073%=      5-min Rain = 0
KTA1 171313Z 17011KT 25/20 A3004 RMK A01 T02470195  RH  073%=      5-min Rain = 0
KTA1 171314Z 16013KT 25/20 A3004 RMK A01 T02480195  RH  073%=      5-min Rain = 0
KTA1 171315Z 16011KT 25/20 A3004 RMK A01 T02470195  RH  073%=      5-min Rain = 0
KTA1 171316Z 17014KT 25/20 A3004 RMK A01 T02470195  RH  073%=      5-min Rain = 0
KTA1 171317Z 16012KT 25/20 A3004 RMK A01 T02480195  RH  072%=      5-min Rain = 0
KTA1 171318Z 17015KT 25/20 A3004 RMK A01 T02480195  RH  072%=      5-min Rain = 0
KTA1 171319Z 16013KT 25/20 A3004 RMK A01 T02480195  RH  072%=      5-min Rain = 0
KTA1 171320Z 17013KT 25/20 A3004 RMK A01 T02480195  RH  072%=      5-min Rain = 0
KTA1 171321Z 17010KT 25/20 A3004 RMK A01 T02490196  RH  072%=      5-min Rain = 0
KTA1 171322Z 17011KT 25/20 A3005 RMK A01 T02490196  RH  072%=      5-min Rain = 0
KTA1 171323Z 17012KT 25/20 A3005 RMK A01 T02490195  RH  072%=      5-min Rain = 0
KTA1 171324Z 17013KT 25/20 A3005 RMK A01 T02490195  RH  072%=      5-min Rain = 0
KTA1 171325Z 16013KT 25/20 A3005 RMK A01 T02500195  RH  072%=      5-min Rain = 0
KTA1 171326Z 17011KT 25/20 A3005 RMK A01 T02500195  RH  072%=      5-min Rain = 0
KTA1 171327Z 18012KT 25/20 A3005 RMK A01 T02500195  RH  072%=      5-min Rain = 0
KTA1 171328Z 17009G14KT 25/20 A3005 RMK A01 T02500195  RH  072%=      5-min Rain = 0
KTA1 171329Z 16013KT 25/20 A3005 RMK A01 T02510196  RH  071%=      5-min Rain = 0
KTA1 171330Z 17011KT 25/20 A3005 RMK A01 T02510196  RH  071%=      5-min Rain = 0
KTA1 171331Z 17012KT 25/20 A3005 RMK A01 T02510195  RH  071%=      5-min Rain = 0
KTA1 171332Z 18011KT 25/20 A3005 RMK A01 T02510195  RH  071%=      5-min Rain = 0
KTA1 171333Z 17013KT 25/20 A3005 RMK A01 T02520196  RH  071%=      5-min Rain = 0
KTA1 171334Z 17010KT 25/20 A3005 RMK A01 T02520196  RH  071%=      5-min Rain = 0
KTA1 171335Z 17011KT 25/20 A3005 RMK A01 T02520196  RH  071%=      5-min Rain = 0
KTA1 171336Z 18009KT 25/20 A3005 RMK A01 T02520196  RH  071%=      5-min Rain = 0
KTA1 171337Z 18013KT 25/20 A3005 RMK A01 T02530196  RH  071%=      5-min Rain = 0
KTA1 171338Z 18015KT 25/20 A3005 RMK A01 T02530195  RH  070%=      5-min Rain = 0
KTA1 171339Z 18015KT 25/20 A3005 RMK A01 T02530195  RH  070%=      5-min Rain = 0
KTA1 171340Z 18011KT 25/20 A3005 RMK A01 T02530195  RH  070%=      5-min Rain = 0
KTA1 171341Z 18013KT 25/20 A3005 RMK A01 T02530195  RH  070%=      5-min Rain = 0
KTA1 171342Z 18015G20KT 25/20 A3005 RMK A01 T02540195  RH  070%=      5-min Rain = 0
KTA1 171343Z 17014KT 25/19 A3005 RMK A01 T02540194  RH  070%=      5-min Rain = 0
KTA1 171344Z 17014KT 25/20 A3005 RMK A01 T02540195  RH  070%=      5-min Rain = 0
KTA1 171345Z 18013KT 25/20 A3005 RMK A01 T02540195  RH  070%=      5-min Rain = 0
KTA1 171346Z 17012KT 26/20 A3005 RMK A01 T02550195  RH  069%=      5-min Rain = 0
KTA1 171347Z 17014KT 26/20 A3005 RMK A01 T02550195  RH  069%=      5-min Rain = 0
KTA1 171348Z 17015G20KT 26/20 A3005 RMK A01 T02560195  RH  069%=      5-min Rain = 0
KTA1 171349Z 17015KT 26/20 A3005 RMK A01 T02560195  RH  069%=      5-min Rain = 0
KTA1 171350Z 17015KT 26/20 A3005 RMK A01 T02550195  RH  069%=      5-min Rain = 0
KTA1 171351Z 17014KT 26/20 A3005 RMK A01 T02560195  RH  069%=      5-min Rain = 0
KTA1 171352Z 17015KT 26/20 A3005 RMK A01 T02560195  RH  069%=      5-min Rain = 0
KTA1 171353Z 17013KT 26/20 A3005 RMK A01 T02560195  RH  069%=      5-min Rain = 0
KTA1 171354Z 16014KT 26/20 A3005 RMK A01 T02560195  RH  069%=      5-min Rain = 0
KTA1 171355Z 17014KT 26/20 A3005 RMK A01 T02560195  RH  069%=      5-min Rain = 0
KTA1 171356Z 17014KT 26/20 A3005 RMK A01 T02560195  RH  069%=      5-min Rain = 0
KTA1 171357Z 17013KT 26/20 A3005 RMK A01 T02570195  RH  069%=      5-min Rain = 0
KTA1 171358Z 16010KT 26/20 A3005 RMK A01 T02570195  RH  069%=      5-min Rain = 0
KTA1 171359Z 17010KT 26/20 A3005 RMK A01 T02580196  RH  069%=      5-min Rain = 0
KTA1 171400Z 16009KT 26/20 A3005 RMK A01 T02590197  RH  069%=      5-min Rain = 0
KTA1 171401Z 17011KT 26/20 A3005 RMK A01 T02590197  RH  068%=      5-min Rain = 0
KTA1 171402Z 17014KT 26/20 A3005 RMK A01 T02600196  RH  068%=      5-min Rain = 0
KTA1 171403Z 17012G18KT 26/20 A3005 RMK A01 T02590196  RH  068%=      5-min Rain = 0
KTA1 171404Z 17015KT 26/20 A3005 RMK A01 T02590196  RH  068%=      5-min Rain = 0
KTA1 171405Z 17016KT 26/20 A3005 RMK A01 T02590195  RH  068%=      5-min Rain = 0
KTA1 171406Z 17011G16KT 26/20 A3005 RMK A01 T02590196  RH  068%=      5-min Rain = 0
KTA1 171407Z 18012G18KT 26/20 A3006 RMK A01 T02600196  RH  068%=      5-min Rain = 0
KTA1 171408Z 17014KT 26/20 A3006 RMK A01 T02610195  RH  067%=      5-min Rain = 0
KTA1 171409Z 18013KT 26/20 A3006 RMK A01 T02610196  RH  067%=      5-min Rain = 0
KTA1 171410Z 17013KT 26/20 A3006 RMK A01 T02620196  RH  067%=      5-min Rain = 0
KTA1 171411Z 17013G18KT 26/20 A3006 RMK A01 T02630196  RH  067%=      5-min Rain = 0
KTA1 171412Z 17015KT 27/20 A3006 RMK A01 T02650196  RH  066%=      5-min Rain = 0
KTA1 171413Z 18015KT 27/20 A3006 RMK A01 T02650195  RH  066%=      5-min Rain = 0
KTA1 171414Z 18015KT 27/20 A3006 RMK A01 T02650196  RH  066%=      5-min Rain = 0
KTA1 171415Z 18011KT 27/20 A3006 RMK A01 T02650196  RH  066%=      5-min Rain = 0
KTA1 171416Z 18014KT 27/20 A3006 RMK A01 T02660196  RH  066%=      5-min Rain = 0
KTA1 171417Z 18013KT 27/20 A3006 RMK A01 T02660196  RH  065%=      5-min Rain = 0
KTA1 171418Z 18014KT 27/20 A3006 RMK A01 T02670196  RH  065%=      5-min Rain = 0
KTA1 171419Z 18011KT 27/20 A3006 RMK A01 T02670196  RH  065%=      5-min Rain = 0
KTA1 171420Z 18015KT 27/20 A3006 RMK A01 T02680197  RH  065%=      5-min Rain = 0
KTA1 171421Z 17015KT 27/20 A3006 RMK A01 T02690196  RH  064%=      5-min Rain = 0
KTA1 171422Z 17016KT 27/20 A3006 RMK A01 T02690196  RH  064%=      5-min Rain = 0
KTA1 171423Z 18015G20KT 27/20 A3006 RMK A01 T02690196  RH  065%=      5-min Rain = 0
KTA1 171424Z 18015KT 27/20 A3006 RMK A01 T02690197  RH  065%=      5-min Rain = 0
KTA1 171425Z 18013KT 27/20 A3006 RMK A01 T02700197  RH  064%=      5-min Rain = 0
KTA1 171426Z 18014KT 27/20 A3006 RMK A01 T02700197  RH  064%=      5-min Rain = 0
KTA1 171427Z 18012KT 27/20 A3006 RMK A01 T02700197  RH  064%=      5-min Rain = 0
KTA1 171428Z 17012KT 27/20 A3006 RMK A01 T02700197  RH  064%=      5-min Rain = 0
KTA1 171429Z 17013KT 27/20 A3006 RMK A01 T02710197  RH  064%=      5-min Rain = 0
KTA1 171430Z 17014KT 27/20 A3006 RMK A01 T02720197  RH  064%=      5-min Rain = 0
KTA1 171431Z 16015KT 27/20 A3006 RMK A01 T02730197  RH  063%=      5-min Rain = 0
KTA1 171432Z 16014KT 27/20 A3006 RMK A01 T02740198  RH  063%=      5-min Rain = 0
KTA1 171433Z 17012KT 27/20 A3006 RMK A01 T02730198  RH  063%=      5-min Rain = 0
KTA1 171434Z 17015KT 27/20 A3006 RMK A01 T02730198  RH  063%=      5-min Rain = 0
KTA1 171435Z 17015KT 27/20 A3006 RMK A01 T02730197  RH  063%=      5-min Rain = 0
KTA1 171436Z 15015KT 27/20 A3006 RMK A01 T02730198  RH  063%=      5-min Rain = 0
KTA1 171437Z 17014KT 27/20 A3006 RMK A01 T02740198  RH  063%=      5-min Rain = 0
KTA1 171438Z 16013KT 28/20 A3006 RMK A01 T02750198  RH  063%=      5-min Rain = 0
KTA1 171439Z 16012KT 28/20 A3006 RMK A01 T02770198  RH  062%=      5-min Rain = 0
KTA1 171440Z 18012KT 28/20 A3006 RMK A01 T02770198  RH  062%=      5-min Rain = 0
KTA1 171441Z 18014KT 28/20 A3006 RMK A01 T02770198  RH  062%=      5-min Rain = 0
KTA1 171442Z 17012KT 28/20 A3006 RMK A01 T02760198  RH  062%=      5-min Rain = 0
KTA1 171443Z 16014KT 28/20 A3006 RMK A01 T02770199  RH  062%=      5-min Rain = 0
KTA1 171444Z 17014KT 28/20 A3006 RMK A01 T02770198  RH  062%=      5-min Rain = 0
KTA1 171445Z 16015G20KT 28/20 A3006 RMK A01 T02770198  RH  062%=      5-min Rain = 0
KTA1 171446Z 16016KT 28/20 A3006 RMK A01 T02760197  RH  062%=      5-min Rain = 0
KTA1 171447Z 17015KT 28/20 A3006 RMK A01 T02760198  RH  062%=      5-min Rain = 0
KTA1 171448Z 17012KT 28/20 A3006 RMK A01 T02760198  RH  062%=      5-min Rain = 0
KTA1 171449Z 17016KT 28/20 A3006 RMK A01 T02790198  RH  061%=      5-min Rain = 0
KTA1 171450Z 17017KT 28/20 A3006 RMK A01 T02790197  RH  061%=      5-min Rain = 0
KTA1 171451Z 17016KT 28/20 A3006 RMK A01 T02780196  RH  061%=      5-min Rain = 0
KTA1 171452Z 16017KT 28/20 A3006 RMK A01 T02770196  RH  061%=      5-min Rain = 0
KTA1 171453Z 17017KT 28/20 A3006 RMK A01 T02760196  RH  062%=      5-min Rain = 0
KTA1 171454Z 17015KT 28/20 A3006 RMK A01 T02760196  RH  062%=      5-min Rain = 0
KTA1 171455Z 17017KT 28/20 A3006 RMK A01 T02750195  RH  062%=      5-min Rain = 0
KTA1 171456Z 18014KT 28/20 A3006 RMK A01 T02750196  RH  062%=      5-min Rain = 0
KTA1 171457Z 17016KT 28/20 A3006 RMK A01 T02760196  RH  062%=      5-min Rain = 0
KTA1 171458Z 17016KT 28/20 A3006 RMK A01 T02760196  RH  061%=      5-min Rain = 0
KTA1 171459Z 17015KT 28/20 A3006 RMK A01 T02770196  RH  061%=      5-min Rain = 0
KTA1 171500Z 18013G18KT 28/20 A3006 RMK A01 T02770197  RH  061%=      5-min Rain = 0
KTA1 171501Z 17015G20KT 28/20 A3006 RMK A01 T02780197  RH  061%=      5-min Rain = 0
KTA1 171502Z 17014KT 28/20 A3006 RMK A01 T02780197  RH  061%=      5-min Rain = 0
KTA1 171503Z 17014KT 28/20 A3006 RMK A01 T02780198  RH  061%=      5-min Rain = 0
KTA1 171504Z 17012KT 28/20 A3006 RMK A01 T02780197  RH  061%=      5-min Rain = 0
KTA1 171505Z 17015KT 28/20 A3006 RMK A01 T02790197  RH  061%=      5-min Rain = 0
KTA1 171506Z 17015KT 28/20 A3006 RMK A01 T02800196  RH  060%=      5-min Rain = 0
KTA1 171507Z 17013G18KT 28/20 A3006 RMK A01 T02800197  RH  060%=      5-min Rain = 0
KTA1 171508Z 17016KT 28/20 A3006 RMK A01 T02810197  RH  060%=      5-min Rain = 0
KTA1 171509Z 17016KT 28/20 A3006 RMK A01 T02810197  RH  060%=      5-min Rain = 0
KTA1 171510Z 18015KT 28/20 A3006 RMK A01 T02810198  RH  061%=      5-min Rain = 0
KTA1 171511Z 18014KT 28/20 A3006 RMK A01 T02800198  RH  061%=      5-min Rain = 0
KTA1 171512Z 18014KT 28/20 A3006 RMK A01 T02800198  RH  061%=      5-min Rain = 0
KTA1 171513Z 17017KT 28/20 A3006 RMK A01 T02810198  RH  061%=      5-min Rain = 0
KTA1 171514Z 17013KT 28/20 A3006 RMK A01 T02820198  RH  061%=      5-min Rain = 0
KTA1 171515Z 17013G18KT 28/20 A3006 RMK A01 T02830199  RH  061%=      5-min Rain = 0
KTA1 171516Z 18014KT 28/20 A3006 RMK A01 T02840199  RH  060%=      5-min Rain = 0
KTA1 171517Z 17015KT 28/20 A3006 RMK A01 T02840199  RH  060%=      5-min Rain = 0
KTA1 171518Z 17016KT 29/20 A3006 RMK A01 T02850198  RH  059%=      5-min Rain = 0
KTA1 171519Z 17013G18KT 29/20 A3006 RMK A01 T02860198  RH  059%=      5-min Rain = 0
KTA1 171520Z 16015KT 29/20 A3006 RMK A01 T02860199  RH  059%=      5-min Rain = 0
KTA1 171521Z 16012KT 29/20 A3006 RMK A01 T02870199  RH  059%=      5-min Rain = 0
KTA1 171522Z 17012G17KT 29/20 A3006 RMK A01 T02870200  RH  059%=      5-min Rain = 0
KTA1 171523Z 17012KT 29/20 A3006 RMK A01 T02870199  RH  059%=      5-min Rain = 0
KTA1 171524Z 18012KT 29/20 A3006 RMK A01 T02890200  RH  059%=      5-min Rain = 0
KTA1 171525Z 18014KT 29/20 A3006 RMK A01 T02900200  RH  058%=      5-min Rain = 0
KTA1 171526Z 18014KT 29/20 A3006 RMK A01 T02900199  RH  058%=      5-min Rain = 0
KTA1 171527Z 17014KT 29/20 A3006 RMK A01 T02890199  RH  058%=      5-min Rain = 0
KTA1 171528Z 17015KT 29/20 A3006 RMK A01 T02890198  RH  058%=      5-min Rain = 0
KTA1 171529Z 16015KT 29/20 A3006 RMK A01 T02890198  RH  058%=      5-min Rain = 0
KTA1 171530Z 16014KT 29/20 A3006 RMK A01 T02880198  RH  058%=      5-min Rain = 0
KTA1 171531Z 17015KT 29/20 A3006 RMK A01 T02880198  RH  058%=      5-min Rain = 0
KTA1 171532Z 17012KT 29/20 A3006 RMK A01 T02880198  RH  058%=      5-min Rain = 0
KTA1 171533Z 17012KT 29/20 A3006 RMK A01 T02880199  RH  059%=      5-min Rain = 0
KTA1 171534Z 17013KT 29/20 A3006 RMK A01 T02890199  RH  058%=      5-min Rain = 0
KTA1 171535Z 16017KT 29/20 A3006 RMK A01 T02890199  RH  058%=      5-min Rain = 0
KTA1 171536Z 17016KT 29/20 A3006 RMK A01 T02880198  RH  058%=      5-min Rain = 0
KTA1 171537Z 17014KT 29/20 A3006 RMK A01 T02870198  RH  059%=      5-min Rain = 0
KTA1 171538Z 16012KT 29/20 A3006 RMK A01 T02860200  RH  059%=      5-min Rain = 0
KTA1 171539Z 17011KT 29/20 A3005 RMK A01 T02870200  RH  059%=      5-min Rain = 0
KTA1 171540Z 17016KT 29/20 A3005 RMK A01 T02890199  RH  058%=      5-min Rain = 0
KTA1 171541Z 18016KT 29/20 A3005 RMK A01 T02900198  RH  058%=      5-min Rain = 0
KTA1 171542Z 17013KT 29/20 A3005 RMK A01 T02890199  RH  058%=      5-min Rain = 0
KTA1 171543Z 16011KT 29/20 A3005 RMK A01 T02890200  RH  059%=      5-min Rain = 0
KTA1 171544Z 18016KT 29/20 A3006 RMK A01 T02920200  RH  058%=      5-min Rain = 0
KTA1 171545Z 18017KT 29/20 A3005 RMK A01 T02920198  RH  057%=      5-min Rain = 0
KTA1 171546Z 19013KT 29/20 A3006 RMK A01 T02900198  RH  058%=      5-min Rain = 0
KTA1 171547Z 18015KT 29/20 A3006 RMK A01 T02900198  RH  058%=      5-min Rain = 0
KTA1 171548Z 17013KT 29/20 A3006 RMK A01 T02910197  RH  057%=      5-min Rain = 0
KTA1 171549Z 17013KT 29/20 A3006 RMK A01 T02930198  RH  057%=      5-min Rain = 0
KTA1 171550Z 17014KT 29/20 A3006 RMK A01 T02940198  RH  056%=      5-min Rain = 0
KTA1 171551Z 18014KT 29/20 A3005 RMK A01 T02940198  RH  056%=      5-min Rain = 0
KTA1 171552Z 16012KT 29/20 A3005 RMK A01 T02940199  RH  057%=      5-min Rain = 0
KTA1 171553Z 16013KT 30/20 A3005 RMK A01 T02960200  RH  056%=      5-min Rain = 0
KTA1 171554Z 16014KT 30/20 A3005 RMK A01 T02980201  RH  056%=      5-min Rain = 0
KTA1 171555Z 16014KT 30/20 A3005 RMK A01 T02980199  RH  055%=      5-min Rain = 0
KTA1 171556Z 18014KT 30/20 A3005 RMK A01 T02970197  RH  055%=      5-min Rain = 0
KTA1 171557Z 17015KT 30/20 A3005 RMK A01 T02960197  RH  055%=      5-min Rain = 0
KTA1 171558Z 17013G18KT 30/20 A3005 RMK A01 T02950199  RH  056%=      5-min Rain = 0
KTA1 171559Z 16011KT 30/20 A3006 RMK A01 T02970200  RH  056%=      5-min Rain = 0
KTA1 171600Z 17014KT 30/20 A3006 RMK A01 T02980199  RH  055%=      5-min Rain = 0
KTA1 171601Z 17015KT 30/20 A3006 RMK A01 T02980198  RH  055%=      5-min Rain = 0
KTA1 171602Z 17013KT 30/20 A3006 RMK A01 T02980197  RH  055%=      5-min Rain = 0
KTA1 171603Z 17013G19KT 30/20 A3006 RMK A01 T02980198  RH  055%=      5-min Rain = 0
KTA1 171604Z 18014G20KT 30/20 A3006 RMK A01 T02980198  RH  055%=      5-min Rain = 0
KTA1 171605Z 19011KT 30/20 A3006 RMK A01 T02980200  RH  056%=      5-min Rain = 0
KTA1 171606Z 18015KT 30/20 A3006 RMK A01 T02980197  RH  055%=      5-min Rain = 0
KTA1 171607Z 18016KT 30/20 A3006 RMK A01 T02970197  RH  055%=      5-min Rain = 0
KTA1 171608Z 18013KT 30/20 A3006 RMK A01 T02960198  RH  056%=      5-min Rain = 0
KTA1 171609Z 17014KT 30/20 A3006 RMK A01 T02960199  RH  056%=      5-min Rain = 0
KTA1 171610Z 17015G20KT 30/20 A3006 RMK A01 T02970198  RH  055%=      5-min Rain = 0
KTA1 171611Z 18013G19KT 30/20 A3006 RMK A01 T02980198  RH  055%=      5-min Rain = 0
KTA1 171612Z 17014KT 30/20 A3006 RMK A01 T03010198  RH  054%=      5-min Rain = 0
KTA1 171613Z 17011KT 30/20 A3006 RMK A01 T03000199  RH  055%=      5-min Rain = 0
KTA1 171614Z 16015KT 30/20 A3005 RMK A01 T03020198  RH  054%=      5-min Rain = 0
KTA1 171615Z 16016G21KT 30/20 A3005 RMK A01 T03020198  RH  054%=      5-min Rain = 0
KTA1 171616Z 17016KT 30/20 A3005 RMK A01 T03010196  RH  053%=      5-min Rain = 0
KTA1 171617Z 17015KT 30/20 A3005 RMK A01 T03000196  RH  054%=      5-min Rain = 0
KTA1 171618Z 18015KT 30/20 A3005 RMK A01 T03000196  RH  054%=      5-min Rain = 0
KTA1 171619Z 16012KT 30/20 A3005 RMK A01 T03000196  RH  054%=      5-min Rain = 0
KTA1 171620Z 17013KT 30/20 A3005 RMK A01 T03040197  RH  053%=      5-min Rain = 0
KTA1 171621Z 18014KT 31/20 A3005 RMK A01 T03050197  RH  053%=      5-min Rain = 0
KTA1 171622Z 18013KT 30/20 A3005 RMK A01 T03030198  RH  053%=      5-min Rain = 0
KTA1 171623Z 18011G16KT 30/20 A3005 RMK A01 T03020197  RH  053%=      5-min Rain = 0
KTA1 171624Z 16010KT 30/20 A3005 RMK A01 T03020199  RH  054%=      5-min Rain = 0
KTA1 171625Z 16017KT 31/20 A3005 RMK A01 T03050197  RH  053%=      5-min Rain = 0
KTA1 171626Z 16015KT 31/20 A3005 RMK A01 T03050197  RH  053%=      5-min Rain = 0
KTA1 171627Z 16017KT 30/20 A3005 RMK A01 T03030197  RH  053%=      5-min Rain = 0
KTA1 171628Z 16015KT 30/20 A3005 RMK A01 T03010197  RH  054%=      5-min Rain = 0
KTA1 171629Z 17014KT 30/20 A3005 RMK A01 T03010199  RH  054%=      5-min Rain = 0
KTA1 171630Z 17016KT 30/20 A3005 RMK A01 T03010197  RH  054%=      5-min Rain = 0
KTA1 171631Z 17015KT 30/20 A3005 RMK A01 T03030198  RH  054%=      5-min Rain = 0
KTA1 171632Z 17016KT 30/20 A3005 RMK A01 T03040197  RH  053%=      5-min Rain = 0
KTA1 171633Z 16016KT 30/20 A3005 RMK A01 T03040197  RH  053%=      5-min Rain = 0
KTA1 171634Z 17013KT 31/20 A3005 RMK A01 T03050197  RH  052%=      5-min Rain = 0
KTA1 171635Z 16012KT 31/20 A3005 RMK A01 T03050196  RH  052%=      5-min Rain = 0
KTA1 171636Z 18012KT 31/20 A3005 RMK A01 T03060196  RH  052%=      5-min Rain = 0
KTA1 171637Z 16012KT 31/20 A3005 RMK A01 T03050198  RH  053%=      5-min Rain = 0
KTA1 171638Z 15011KT 31/20 A3005 RMK A01 T03050199  RH  053%=      5-min Rain = 0
KTA1 171639Z 17015G20KT 31/20 A3005 RMK A01 T03060198  RH  053%=      5-min Rain = 0
KTA1 171640Z 18013KT 31/20 A3005 RMK A01 T03070198  RH  052%=      5-min Rain = 0
KTA1 171641Z 18017KT 31/20 A3005 RMK A01 T03090195  RH  051%=      5-min Rain = 0
KTA1 171642Z 17013KT 31/19 A3005 RMK A01 T03090194  RH  051%=      5-min Rain = 0
KTA1 171643Z 17010KT 31/20 A3005 RMK A01 T03090197  RH  051%=      5-min Rain = 0
KTA1 171644Z 15014G19KT 31/20 A3005 RMK A01 T03120198  RH  051%=      5-min Rain = 0
KTA1 171645Z 16016KT 31/20 A3005 RMK A01 T03120196  RH  050%=      5-min Rain = 0
KTA1 171646Z 16014KT 31/20 A3005 RMK A01 T03120198  RH  051%=      5-min Rain = 0
KTA1 171647Z 16013KT 31/20 A3005 RMK A01 T03110198  RH  051%=      5-min Rain = 0
KTA1 171648Z 17012KT 31/20 A3005 RMK A01 T03090197  RH  052%=      5-min Rain = 0
KTA1 171649Z 17012KT 31/20 A3005 RMK A01 T03080198  RH  052%=      5-min Rain = 0
KTA1 171650Z 18014KT 31/20 A3005 RMK A01 T03090197  RH  051%=      5-min Rain = 0
KTA1 171651Z 18014G19KT 31/20 A3005 RMK A01 T03120197  RH  050%=      5-min Rain = 0
KTA1 171652Z 18017KT 31/20 A3005 RMK A01 T03140196  RH  050%=      5-min Rain = 0
KTA1 171653Z 18015KT 31/19 A3005 RMK A01 T03130194  RH  049%=      5-min Rain = 0
KTA1 171654Z 18013KT 31/19 A3005 RMK A01 T03110192  RH  049%=      5-min Rain = 0
KTA1 171655Z 18012KT 31/19 A3005 RMK A01 T03100192  RH  050%=      5-min Rain = 0
KTA1 171656Z 18014KT 31/19 A3005 RMK A01 T03110192  RH  049%=      5-min Rain = 0
KTA1 171657Z 16012KT 31/19 A3005 RMK A01 T03120194  RH  049%=      5-min Rain = 0
KTA1 171658Z 15013KT 31/20 A3005 RMK A01 T03130195  RH  049%=      5-min Rain = 0
KTA1 171659Z 15014KT 31/20 A3005 RMK A01 T03110195  RH  050%=      5-min Rain = 0
KTA1 171700Z 15013KT 31/19 A3005 RMK A01 T03120194  RH  050%=      5-min Rain = 0
KTA1 171701Z 15016G21KT 31/20 A3005 RMK A01 T03130195  RH  050%=      5-min Rain = 0
KTA1 171702Z 17016KT 31/20 A3005 RMK A01 T03130197  RH  050%=      5-min Rain = 0
KTA1 171703Z 16014KT 31/20 A3005 RMK A01 T03130196  RH  050%=      5-min Rain = 0
KTA1 171704Z 16015KT 31/20 A3005 RMK A01 T03110196  RH  050%=      5-min Rain = 0
KTA1 171705Z 15011KT 31/20 A3005 RMK A01 T03100195  RH  050%=      5-min Rain = 0
KTA1 171706Z 17013KT 31/20 A3005 RMK A01 T03120197  RH  050%=      5-min Rain = 0
KTA1 171707Z 18012G17KT 32/20 A3005 RMK A01 T03180195  RH  048%=      5-min Rain = 0
KTA1 171708Z 17011KT 32/20 A3005 RMK A01 T03210195  RH  047%=      5-min Rain = 0
KTA1 171709Z 17011KT 32/20 A3005 RMK A01 T03240196  RH  047%=      5-min Rain = 0
KTA1 171710Z 17013KT 33/19 A3005 RMK A01 T03250194  RH  046%=      5-min Rain = 0
KTA1 171711Z 18014KT 32/19 A3005 RMK A01 T03230193  RH  046%=      5-min Rain = 0
KTA1 171712Z 18012KT 32/19 A3005 RMK A01 T03180193  RH  048%=      5-min Rain = 0
KTA1 171713Z 19012KT 32/19 A3005 RMK A01 T03150192  RH  048%=      5-min Rain = 0
KTA1 171714Z 19013KT 32/19 A3005 RMK A01 T03150193  RH  048%=      5-min Rain = 0
KTA1 171715Z 16010KT 32/19 A3005 RMK A01 T03170193  RH  048%=      5-min Rain = 0
KTA1 171716Z 15014KT 32/19 A3005 RMK A01 T03200193  RH  047%=      5-min Rain = 0
KTA1 171717Z 14014G19KT 32/19 A3005 RMK A01 T03210193  RH  047%=      5-min Rain = 0
KTA1 171718Z 14013KT 32/19 A3005 RMK A01 T03220193  RH  046%=      5-min Rain = 0
KTA1 171719Z 16010KT 32/20 A3005 RMK A01 T03210195  RH  048%=      5-min Rain = 0
KTA1 171720Z 18014KT 32/20 A3005 RMK A01 T03220195  RH  047%=      5-min Rain = 0
KTA1 171721Z 18015G21KT 32/19 A3005 RMK A01 T03220191  RH  046%=      5-min Rain = 0
KTA1 171722Z 17016KT 32/19 A3005 RMK A01 T03220190  RH  046%=      5-min Rain = 0
KTA1 171723Z 16013KT 32/19 A3005 RMK A01 T03210189  RH  046%=      5-min Rain = 0
KTA1 171724Z 18012KT 32/19 A3005 RMK A01 T03180191  RH  047%=      5-min Rain = 0
KTA1 171725Z 17011KT 32/19 A3005 RMK A01 T03180190  RH  047%=      5-min Rain = 0
KTA1 171726Z 17012G17KT 32/19 A3005 RMK A01 T03200192  RH  047%=      5-min Rain = 0
KTA1 171727Z 15014KT 32/19 A3005 RMK A01 T03220194  RH  047%=      5-min Rain = 0
KTA1 171728Z 16015KT 32/19 A3005 RMK A01 T03210194  RH  047%=      5-min Rain = 0
KTA1 171729Z 17014KT 32/19 A3005 RMK A01 T03200192  RH  047%=      5-min Rain = 0
KTA1 171730Z 18012KT 32/19 A3005 RMK A01 T03200190  RH  046%=      5-min Rain = 0
KTA1 171731Z 17015G20KT 32/19 A3005 RMK A01 T03240190  RH  045%=      5-min Rain = 0
KTA1 171732Z 18015KT 33/19 A3005 RMK A01 T03250188  RH  044%=      5-min Rain = 0
KTA1 171733Z 18014KT 33/19 A3005 RMK A01 T03250190  RH  045%=      5-min Rain = 0
KTA1 171734Z 17012KT 32/19 A3005 RMK A01 T03220193  RH  046%=      5-min Rain = 0
KTA1 171735Z 16010KT 32/19 A3005 RMK A01 T03220194  RH  047%=      5-min Rain = 0
KTA1 171736Z 17015G21KT 32/19 A3005 RMK A01 T03230194  RH  046%=      5-min Rain = 0
KTA1 171737Z 17014KT 33/19 A3005 RMK A01 T03250190  RH  045%=      5-min Rain = 0
KTA1 171738Z 18014G19KT 33/19 A3005 RMK A01 T03250187  RH  044%=      5-min Rain = 0
KTA1 171739Z 18015KT 33/19 A3005 RMK A01 T03250187  RH  044%=      5-min Rain = 0
KTA1 171740Z 17013KT 33/19 A3005 RMK A01 T03250188  RH  044%=      5-min Rain = 0
KTA1 171741Z 18012KT 33/19 A3005 RMK A01 T03250189  RH  044%=      5-min Rain = 0
KTA1 171742Z 19010KT 32/19 A3005 RMK A01 T03240190  RH  045%=      5-min Rain = 0
KTA1 171743Z 19012KT 33/19 A3005 RMK A01 T03250190  RH  045%=      5-min Rain = 0
KTA1 171744Z 19010KT 32/19 A3005 RMK A01 T03240190  RH  045%=      5-min Rain = 0
KTA1 171745Z 18012KT 32/19 A3005 RMK A01 T03240191  RH  045%=      5-min Rain = 0
KTA1 171746Z 17012G17KT 33/19 A3005 RMK A01 T03260189  RH  044%=      5-min Rain = 0
KTA1 171747Z 18014KT 33/19 A3005 RMK A01 T03280188  RH  044%=      5-min Rain = 0
KTA1 171748Z 18011KT 33/19 A3005 RMK A01 T03280186  RH  043%=      5-min Rain = 0
KTA1 171749Z 18008KT 33/18 A3005 RMK A01 T03260184  RH  043%=      5-min Rain = 0
KTA1 171750Z 17009KT 32/18 A3005 RMK A01 T03240184  RH  043%=      5-min Rain = 0
KTA1 171751Z 18013KT 32/19 A3005 RMK A01 T03240185  RH  044%=      5-min Rain = 0
KTA1 171752Z 16014KT 33/19 A3005 RMK A01 T03250186  RH  044%=      5-min Rain = 0
KTA1 171753Z 16013KT 33/19 A3005 RMK A01 T03260187  RH  044%=      5-min Rain = 0
KTA1 171754Z 17015KT 33/19 A3005 RMK A01 T03280186  RH  043%=      5-min Rain = 0
KTA1 171755Z 17013KT 33/19 A3005 RMK A01 T03280185  RH  043%=      5-min Rain = 0
KTA1 171756Z 16009KT 33/19 A3005 RMK A01 T03280186  RH  043%=      5-min Rain = 0
KTA1 171757Z 16011G18KT 33/19 A3005 RMK A01 T03280187  RH  043%=      5-min Rain = 0
KTA1 171758Z 17012G17KT 33/19 A3005 RMK A01 T03300189  RH  043%=      5-min Rain = 0
KTA1 171759Z 17012G18KT 33/19 A3005 RMK A01 T03320191  RH  043%=      5-min Rain = 0
KTA1 171800Z 17010KT 33/19 A3004 RMK A01 T03310190  RH  043%=      5-min Rain = 0
KTA1 171801Z 17017KT 33/18 A3004 RMK A01 T03300184  RH  042%=      5-min Rain = 0
KTA1 171802Z 16014KT 33/18 A3005 RMK A01 T03300179  RH  041%=      5-min Rain = 0
KTA1 171803Z 16009KT 33/18 A3004 RMK A01 T03290178  RH  041%=      5-min Rain = 0
KTA1 171804Z 17011KT 33/18 A3004 RMK A01 T03290181  RH  041%=      5-min Rain = 0
KTA1 171805Z 17013KT 33/18 A3004 RMK A01 T03290182  RH  042%=      5-min Rain = 0
KTA1 171806Z 15013KT 33/19 A3004 RMK A01 T03300185  RH  042%=      5-min Rain = 0
KTA1 171807Z 16011KT 33/19 A3004 RMK A01 T03270187  RH  044%=      5-min Rain = 0
KTA1 171808Z 15010KT 33/19 A3004 RMK A01 T03290189  RH  044%=      5-min Rain = 0
KTA1 171809Z 16016KT 33/19 A3004 RMK A01 T03330188  RH  042%=      5-min Rain = 0
KTA1 171810Z 17013KT 33/19 A3004 RMK A01 T03320188  RH  043%=      5-min Rain = 0
KTA1 171811Z 18009KT 33/19 A3004 RMK A01 T03310189  RH  043%=      5-min Rain = 0
KTA1 171812Z 16011KT 33/19 A3004 RMK A01 T03310190  RH  044%=      5-min Rain = 0
KTA1 171813Z 16009KT 33/19 A3004 RMK A01 T03310192  RH  044%=      5-min Rain = 0
KTA1 171814Z 16016KT 33/19 A3004 RMK A01 T03330190  RH  043%=      5-min Rain = 0
KTA1 171815Z 16012KT 33/19 A3004 RMK A01 T03330189  RH  043%=      5-min Rain = 0
KTA1 171816Z 18012KT 33/19 A3004 RMK A01 T03320189  RH  043%=      5-min Rain = 0
KTA1 171817Z 18010KT 33/19 A3004 RMK A01 T03310186  RH  042%=      5-min Rain = 0
KTA1 171818Z 16010KT 33/19 A3004 RMK A01 T03290187  RH  043%=      5-min Rain = 0
KTA1 171819Z 17012KT 33/19 A3004 RMK A01 T03310187  RH  043%=      5-min Rain = 0
KTA1 171820Z 16013KT 33/18 A3004 RMK A01 T03340182  RH  041%=      5-min Rain = 0
KTA1 171821Z 16013KT 33/18 A3004 RMK A01 T03330182  RH  041%=      5-min Rain = 0
KTA1 171822Z 16013G18KT 33/18 A3004 RMK A01 T03320184  RH  041%=      5-min Rain = 0
KTA1 171823Z 16011KT 33/18 A3004 RMK A01 T03330181  RH  041%=      5-min Rain = 0
KTA1 171824Z 16014KT 34/18 A3004 RMK A01 T03350183  RH  041%=      5-min Rain = 0
KTA1 171825Z 15015KT 34/19 A3004 RMK A01 T03350186  RH  041%=      5-min Rain = 0
KTA1 171826Z 16013KT 33/19 A3004 RMK A01 T03340186  RH  042%=      5-min Rain = 0
KTA1 171827Z 16013KT 33/19 A3004 RMK A01 T03330185  RH  041%=      5-min Rain = 0
KTA1 171828Z 16011KT 33/18 A3004 RMK A01 T03320183  RH  041%=      5-min Rain = 0
KTA1 171829Z 15008KT 33/18 A3004 RMK A01 T03320183  RH  041%=      5-min Rain = 0
KTA1 171830Z 14011KT 33/18 A3004 RMK A01 T03340180  RH  040%=      5-min Rain = 0
KTA1 171831Z 15008KT 34/18 A3004 RMK A01 T03350177  RH  039%=      5-min Rain = 0
KTA1 171832Z 14008KT 34/18 A3004 RMK A01 T03360181  RH  040%=      5-min Rain = 0
KTA1 171833Z 16008KT 34/18 A3004 RMK A01 T03390184  RH  040%=      5-min Rain = 0
KTA1 171834Z 16010KT 34/19 A3003 RMK A01 T03410188  RH  041%=      5-min Rain = 0
KTA1 171835Z 18009KT 34/19 A3003 RMK A01 T03410189  RH  041%=      5-min Rain = 0
KTA1 171836Z 17012KT 34/19 A3003 RMK A01 T03410188  RH  041%=      5-min Rain = 0
KTA1 171837Z 15014KT 34/19 A3003 RMK A01 T03400188  RH  041%=      5-min Rain = 0
KTA1 171838Z 15013KT 34/19 A3003 RMK A01 T03410187  RH  040%=      5-min Rain = 0
KTA1 171839Z 17011KT 34/19 A3003 RMK A01 T03410189  RH  041%=      5-min Rain = 0
KTA1 171840Z 16010KT 34/19 A3003 RMK A01 T03410188  RH  040%=      5-min Rain = 0
KTA1 171841Z 19014KT 34/19 A3003 RMK A01 T03430187  RH  040%=      5-min Rain = 0
KTA1 171842Z 17014KT 34/18 A3003 RMK A01 T03410182  RH  039%=      5-min Rain = 0
KTA1 171843Z 17014KT 34/18 A3003 RMK A01 T03380183  RH  040%=      5-min Rain = 0
KTA1 171844Z 16013KT 34/18 A3003 RMK A01 T03390182  RH  040%=      5-min Rain = 0
KTA1 171845Z 15012KT 34/18 A3003 RMK A01 T03400182  RH  039%=      5-min Rain = 0
KTA1 171846Z 17013G18KT 34/19 A3003 RMK A01 T03400185  RH  040%=      5-min Rain = 0
KTA1 171847Z 14013G18KT 34/18 A3003 RMK A01 T03410184  RH  039%=      5-min Rain = 0
KTA1 171848Z 13017KT 34/18 A3003 RMK A01 T03410182  RH  039%=      5-min Rain = 0
KTA1 171849Z 15013KT 34/19 A3003 RMK A01 T03410185  RH  040%=      5-min Rain = 0
KTA1 171850Z 16013KT 34/19 A3003 RMK A01 T03400185  RH  040%=      5-min Rain = 0
KTA1 171851Z 15010G16KT 34/19 A3003 RMK A01 T03350185  RH  041%=      5-min Rain = 0
KTA1 171852Z 14014KT 34/18 A3002 RMK A01 T03360184  RH  041%=      5-min Rain = 0
KTA1 171853Z 13016KT 34/18 A3002 RMK A01 T03390183  RH  040%=      5-min Rain = 0
KTA1 171854Z 14016KT 34/18 A3002 RMK A01 T03390184  RH  040%=      5-min Rain = 0
KTA1 171855Z 13014KT 34/18 A3002 RMK A01 T03390184  RH  040%=      5-min Rain = 0
KTA1 171856Z 14011KT 34/18 A3002 RMK A01 T03390182  RH  039%=      5-min Rain = 0
KTA1 171857Z 14009KT 34/19 A3002 RMK A01 T03390185  RH  040%=      5-min Rain = 0
KTA1 171858Z 14011KT 34/19 A3002 RMK A01 T03410185  RH  040%=      5-min Rain = 0
KTA1 171859Z 14015KT 34/18 A3002 RMK A01 T03420182  RH  039%=      5-min Rain = 0
KTA1 171900Z 14015KT 34/18 A3002 RMK A01 T03430181  RH  038%=      5-min Rain = 0
KTA1 171901Z 15013G19KT 34/18 A3002 RMK A01 T03440181  RH  038%=      5-min Rain = 0
KTA1 171902Z 14014KT 34/18 A3002 RMK A01 T03440176  RH  037%=      5-min Rain = 0
KTA1 171903Z 13011KT 34/17 A3002 RMK A01 T03410172  RH  037%=      5-min Rain = 0
KTA1 171904Z 14009KT 34/17 A3002 RMK A01 T03410173  RH  037%=      5-min Rain = 0
KTA1 171905Z 15010KT 34/18 A3002 RMK A01 T03410176  RH  037%=      5-min Rain = 0
KTA1 171906Z 14012G17KT 34/18 A3002 RMK A01 T03430181  RH  038%=      5-min Rain = 0
KTA1 171907Z 15014KT 35/18 A3002 RMK A01 T03470181  RH  038%=      5-min Rain = 0
KTA1 171908Z 14010KT 35/18 A3002 RMK A01 T03470179  RH  037%=      5-min Rain = 0
KTA1 171909Z 16010KT 34/18 A3002 RMK A01 T03440181  RH  038%=      5-min Rain = 0
KTA1 171910Z 16010G18KT 34/18 A3002 RMK A01 T03430183  RH  039%=      5-min Rain = 0
KTA1 171911Z 16015KT 34/18 A3001 RMK A01 T03440179  RH  038%=      5-min Rain = 0
KTA1 171912Z 15015KT 34/18 A3002 RMK A01 T03430178  RH  038%=      5-min Rain = 0
KTA1 171913Z 16011KT 34/18 A3002 RMK A01 T03430180  RH  038%=      5-min Rain = 0
KTA1 171914Z 16017KT 34/18 A3001 RMK A01 T03410179  RH  038%=      5-min Rain = 0
KTA1 171915Z 16015KT 34/18 A3002 RMK A01 T03390179  RH  039%=      5-min Rain = 0
KTA1 171916Z 15011G16KT 34/18 A3001 RMK A01 T03370180  RH  039%=      5-min Rain = 0
KTA1 171917Z 14010KT 34/18 A3001 RMK A01 T03390182  RH  039%=      5-min Rain = 0
KTA1 171918Z 16008KT 34/18 A3001 RMK A01 T03420181  RH  039%=      5-min Rain = 0
KTA1 171919Z 14011KT 34/18 A3001 RMK A01 T03420182  RH  039%=      5-min Rain = 0
KTA1 171920Z 14010KT 34/18 A3001 RMK A01 T03440180  RH  038%=      5-min Rain = 0
KTA1 171921Z 18013KT 35/18 A3001 RMK A01 T03480183  RH  038%=      5-min Rain = 0
KTA1 171922Z 18015KT 35/18 A3001 RMK A01 T03500178  RH  036%=      5-min Rain = 0
KTA1 171923Z 17014G19KT 35/18 A3001 RMK A01 T03480177  RH  036%=      5-min Rain = 0
KTA1 171924Z 16013KT 35/17 A3001 RMK A01 T03460172  RH  036%=      5-min Rain = 0
KTA1 171925Z 15014KT 35/17 A3001 RMK A01 T03450173  RH  036%=      5-min Rain = 0
KTA1 171926Z 16011KT 35/17 A3001 RMK A01 T03460173  RH  036%=      5-min Rain = 0
KTA1 171927Z 16012KT 35/18 A3001 RMK A01 T03480176  RH  036%=      5-min Rain = 0
KTA1 171928Z 14007G12KT 35/18 A3001 RMK A01 T03470175  RH  036%=      5-min Rain = 0
KTA1 171929Z 15008KT 35/18 A3001 RMK A01 T03470176  RH  036%=      5-min Rain = 0
KTA1 171930Z 16015KT 35/18 A3001 RMK A01 T03490177  RH  036%=      5-min Rain = 0
KTA1 171931Z 16013G18KT 35/18 A3001 RMK A01 T03490177  RH  036%=      5-min Rain = 0
KTA1 171932Z 17015KT 35/18 A3001 RMK A01 T03490177  RH  036%=      5-min Rain = 0
KTA1 171933Z 15012KT 35/18 A3001 RMK A01 T03500180  RH  037%=      5-min Rain = 0
KTA1 171934Z 15011KT 35/18 A3001 RMK A01 T03490182  RH  037%=      5-min Rain = 0
KTA1 171935Z 13009KT 35/18 A30 RMK A01 T03460180  RH  037%=      5-min Rain = 0
KTA1 171936Z 14008KT 34/18 A30 RMK A01 T03440178  RH  037%=      5-min Rain = 0
KTA1 171937Z 14007G12KT 34/18 A30 RMK A01 T03420178  RH  038%=      5-min Rain = 0
KTA1 171938Z 15011G16KT 34/18 A30 RMK A01 T03430181  RH  038%=      5-min Rain = 0
KTA1 171939Z 17011G16KT 34/18 A30 RMK A01 T03430178  RH  038%=      5-min Rain = 0
KTA1 171940Z 16014KT 34/18 A30 RMK A01 T03440175  RH  037%=      5-min Rain = 0
KTA1 171941Z 13012G17KT 35/18 A30 RMK A01 T03460175  RH  036%=      5-min Rain = 0
KTA1 171942Z 14015KT 35/18 A30 RMK A01 T03490175  RH  036%=      5-min Rain = 0
KTA1 171943Z 15013KT 35/18 A30 RMK A01 T03490176  RH  036%=      5-min Rain = 0
KTA1 171944Z 14015KT 35/18 A30 RMK A01 T03510178  RH  036%=      5-min Rain = 0
KTA1 171945Z 16014KT 35/18 A30 RMK A01 T03520178  RH  036%=      5-min Rain = 0
KTA1 171946Z 15013G18KT 35/18 A30 RMK A01 T03530177  RH  035%=      5-min Rain = 0
KTA1 171947Z 15009KT 35/18 A30 RMK A01 T03520177  RH  036%=      5-min Rain = 0
KTA1 171948Z 17010G15KT 35/18 A30 RMK A01 T03510178  RH  036%=      5-min Rain = 0
KTA1 171949Z 18013KT 35/18 A30 RMK A01 T03520178  RH  036%=      5-min Rain = 0
KTA1 171950Z 18015KT 35/18 A30 RMK A01 T03510176  RH  036%=      5-min Rain = 0
KTA1 171951Z 17011KT 35/18 A30 RMK A01 T03510175  RH  035%=      5-min Rain = 0
KTA1 171952Z 17016KT 35/17 A30 RMK A01 T03530173  RH  035%=      5-min Rain = 0
KTA1 171953Z 17014G19KT 35/17 A30 RMK A01 T03540168  RH  033%=      5-min Rain = 0
KTA1 171954Z 17012KT 35/17 A30 RMK A01 T03540169  RH  034%=      5-min Rain = 0
KTA1 171955Z 17012G17KT 35/17 A30 RMK A01 T03520168  RH  034%=      5-min Rain = 0
KTA1 171956Z 18010KT 35/17 A30 RMK A01 T03510168  RH  034%=      5-min Rain = 0
KTA1 171957Z 17011KT 35/17 A2999 RMK A01 T03500168  RH  034%=      5-min Rain = 0
KTA1 171958Z 16009KT 35/17 A2999 RMK A01 T03500169  RH  034%=      5-min Rain = 0
KTA1 171959Z 17012KT 35/17 A2999 RMK A01 T03490171  RH  035%=      5-min Rain = 0
KTA1 172000Z 18013KT 35/17 A2999 RMK A01 T03520168  RH  034%=      5-min Rain = 0
KTA1 172001Z 17012KT 35/17 A30 RMK A01 T03530167  RH  033%=      5-min Rain = 0
KTA1 172002Z 15009KT 35/17 A30 RMK A01 T03510169  RH  034%=      5-min Rain = 0
KTA1 172003Z 15005KT 35/17 A2999 RMK A01 T03470168  RH  035%=      5-min Rain = 0
KTA1 172004Z 14007KT 35/17 A2999 RMK A01 T03450170  RH  035%=      5-min Rain = 0
KTA1 172005Z 17008KT 35/17 A2999 RMK A01 T03490173  RH  035%=      5-min Rain = 0
KTA1 172006Z 13013KT 35/18 A2999 RMK A01 T03540175  RH  035%=      5-min Rain = 0
KTA1 172007Z 15011KT 36/18 A2999 RMK A01 T03560175  RH  034%=      5-min Rain = 0
KTA1 172008Z 15013KT 36/18 A2999 RMK A01 T03560175  RH  034%=      5-min Rain = 0
KTA1 172009Z 16014KT 36/17 A2999 RMK A01 T03560172  RH  034%=      5-min Rain = 0
KTA1 172010Z 19010KT 35/17 A2999 RMK A01 T03540169  RH  033%=      5-min Rain = 0
KTA1 172011Z 16010KT 35/17 A2999 RMK A01 T03540168  RH  033%=      5-min Rain = 0
KTA1 172012Z 14011KT 36/17 A2999 RMK A01 T03560170  RH  033%=      5-min Rain = 0
KTA1 172013Z 14007KT 36/17 A2999 RMK A01 T03560171  RH  033%=      5-min Rain = 0
KTA1 172014Z 15009KT 36/17 A2999 RMK A01 T03550172  RH  034%=      5-min Rain = 0
KTA1 172015Z 16011KT 36/17 A2999 RMK A01 T03560170  RH  033%=      5-min Rain = 0
KTA1 172016Z 17013KT 36/17 A2999 RMK A01 T03560168  RH  033%=      5-min Rain = 0
KTA1 172017Z 16010KT 35/17 A2999 RMK A01 T03540165  RH  032%=      5-min Rain = 0
KTA1 172018Z 17008KT 35/16 A2999 RMK A01 T03520159  RH  032%=      5-min Rain = 0
KTA1 172019Z 16010KT 35/16 A2999 RMK A01 T03510164  RH  033%=      5-min Rain = 0
KTA1 172020Z 16015G20KT 35/17 A2999 RMK A01 T03530171  RH  034%=      5-min Rain = 0
KTA1 172021Z 17012KT 35/17 A2999 RMK A01 T03540172  RH  034%=      5-min Rain = 0
KTA1 172022Z 18010KT 36/17 A2999 RMK A01 T03550172  RH  034%=      5-min Rain = 0
KTA1 172023Z 16016G21KT 36/17 A2999 RMK A01 T03570173  RH  034%=      5-min Rain = 0
KTA1 172024Z 15014KT 36/17 A2999 RMK A01 T03550173  RH  034%=      5-min Rain = 0
KTA1 172025Z 15013KT 35/17 A2999 RMK A01 T03540172  RH  034%=      5-min Rain = 0
KTA1 172026Z 16011KT 35/17 A2999 RMK A01 T03520170  RH  034%=      5-min Rain = 0
KTA1 172027Z 15012G17KT 35/17 A2999 RMK A01 T03530170  RH  034%=      5-min Rain = 0
KTA1 172028Z 14010KT 35/17 A2999 RMK A01 T03540165  RH  033%=      5-min Rain = 0
KTA1 172029Z 14008KT 35/17 A2999 RMK A01 T03530167  RH  033%=      5-min Rain = 0
KTA1 172030Z 15014KT 35/17 A2999 RMK A01 T03540168  RH  033%=      5-min Rain = 0
KTA1 172031Z 15010G15KT 36/17 A2999 RMK A01 T03550165  RH  032%=      5-min Rain = 0
KTA1 172032Z 15011KT 35/17 A2999 RMK A01 T03530166  RH  033%=      5-min Rain = 0
KTA1 172033Z 13014KT 36/17 A2999 RMK A01 T03550167  RH  033%=      5-min Rain = 0
KTA1 172034Z 14011KT 36/17 A2999 RMK A01 T03560167  RH  033%=      5-min Rain = 0
KTA1 172035Z 14010KT 35/17 A2998 RMK A01 T03540167  RH  033%=      5-min Rain = 0
KTA1 172036Z 13012KT 35/17 A2998 RMK A01 T03530168  RH  033%=      5-min Rain = 0
KTA1 172037Z 13013KT 36/17 A2998 RMK A01 T03550168  RH  033%=      5-min Rain = 0
KTA1 172038Z 13013KT 36/17 A2998 RMK A01 T03550168  RH  033%=      5-min Rain = 0
KTA1 172039Z 15009KT 35/17 A2998 RMK A01 T03540169  RH  033%=      5-min Rain = 0
KTA1 172040Z 17010KT 36/17 A2998 RMK A01 T03560169  RH  033%=      5-min Rain = 0
KTA1 172041Z 19011KT 36/17 A2998 RMK A01 T03560168  RH  033%=      5-min Rain = 0
KTA1 172042Z 19008KT 35/17 A2998 RMK A01 T03540168  RH  033%=      5-min Rain = 0
KTA1 172043Z 17008KT 36/17 A2998 RMK A01 T03550170  RH  033%=      5-min Rain = 0
KTA1 172044Z 16006KT 36/17 A2997 RMK A01 T03550171  RH  034%=      5-min Rain = 0
KTA1 172045Z 15009G14KT 36/17 A2997 RMK A01 T03560173  RH  034%=      5-min Rain = 0
KTA1 172046Z 13012KT 36/17 A2997 RMK A01 T03590173  RH  033%=      5-min Rain = 0
KTA1 172047Z 12013KT 36/17 A2997 RMK A01 T03590171  RH  033%=      5-min Rain = 0
KTA1 172048Z 12009KT 36/17 A2997 RMK A01 T03560170  RH  033%=      5-min Rain = 0
KTA1 172049Z 13010KT 35/17 A2997 RMK A01 T03540170  RH  034%=      5-min Rain = 0
KTA1 172050Z 15008KT 36/17 A2997 RMK A01 T03570172  RH  034%=      5-min Rain = 0
KTA1 172051Z 16011KT 36/17 A2997 RMK A01 T03600171  RH  033%=      5-min Rain = 0
KTA1 172052Z 16013KT 36/17 A2997 RMK A01 T03640169  RH  032%=      5-min Rain = 0
KTA1 172053Z 16013KT 37/17 A2997 RMK A01 T03660168  RH  031%=      5-min Rain = 0
KTA1 172054Z 15014KT 37/17 A2997 RMK A01 T03660166  RH  031%=      5-min Rain = 0
KTA1 172055Z 15011KT 36/16 A2997 RMK A01 T03630163  RH  031%=      5-min Rain = 0
KTA1 172056Z 17012KT 36/16 A2997 RMK A01 T03620160  RH  030%=      5-min Rain = 0
KTA1 172057Z 16012KT 36/16 A2997 RMK A01 T03590159  RH  030%=      5-min Rain = 0
KTA1 172058Z 17011KT 36/16 A2997 RMK A01 T03590157  RH  030%=      5-min Rain = 0
KTA1 172059Z 16008KT 36/16 A2997 RMK A01 T03600157  RH  030%=      5-min Rain = 0
KTA1 172100Z 18010KT 36/16 A2997 RMK A01 T03620155  RH  029%=      5-min Rain = 0
KTA1 172101Z 21007KT 36/15 A2997 RMK A01 T03630151  RH  028%=      5-min Rain = 0
KTA1 172102Z 18009KT 36/16 A2997 RMK A01 T03620156  RH  029%=      5-min Rain = 0
KTA1 172103Z 20012KT 36/16 A2996 RMK A01 T03610157  RH  030%=      5-min Rain = 0
KTA1 172104Z 20010KT 36/16 A2996 RMK A01 T03590159  RH  031%=      5-min Rain = 0
KTA1 172105Z 19010KT 36/16 A2996 RMK A01 T03600162  RH  031%=      5-min Rain = 0
KTA1 172106Z 17009KT 36/16 A2996 RMK A01 T03610162  RH  031%=      5-min Rain = 0
KTA1 172107Z 17009KT 36/16 A2996 RMK A01 T03580161  RH  031%=      5-min Rain = 0
KTA1 172108Z 16011KT 36/16 A2996 RMK A01 T03610161  RH  031%=      5-min Rain = 0
KTA1 172109Z 16010KT 36/16 A2996 RMK A01 T03600159  RH  030%=      5-min Rain = 0
KTA1 172110Z 17009KT 36/16 A2996 RMK A01 T03580157  RH  030%=      5-min Rain = 0
KTA1 172111Z 17008KT 36/16 A2996 RMK A01 T03590157  RH  030%=      5-min Rain = 0
KTA1 172112Z 18009KT 36/16 A2996 RMK A01 T03610155  RH  030%=      5-min Rain = 0
KTA1 172113Z 16009KT 36/15 A2996 RMK A01 T03610154  RH  029%=      5-min Rain = 0
KTA1 172114Z 16009KT 36/16 A2996 RMK A01 T03640161  RH  030%=      5-min Rain = 0
KTA1 172115Z 16010KT 37/16 A2996 RMK A01 T03670162  RH  030%=      5-min Rain = 0
KTA1 172116Z 16009KT 37/16 A2996 RMK A01 T03670159  RH  029%=      5-min Rain = 0
KTA1 172117Z 14006KT 36/16 A2996 RMK A01 T03630157  RH  030%=      5-min Rain = 0
KTA1 172118Z 16013G20KT 36/16 A2996 RMK A01 T03610159  RH  030%=      5-min Rain = 0
KTA1 172119Z 15014KT 36/16 A2996 RMK A01 T03620159  RH  030%=      5-min Rain = 0
KTA1 172120Z 18010KT 36/16 A2996 RMK A01 T03640156  RH  029%=      5-min Rain = 0
KTA1 172121Z 18011G16KT 36/15 A2996 RMK A01 T03640154  RH  029%=      5-min Rain = 0
KTA1 172122Z 19010KT 36/15 A2996 RMK A01 T03640152  RH  028%=      5-min Rain = 0
KTA1 172123Z 18012KT 36/15 A2996 RMK A01 T03630153  RH  029%=      5-min Rain = 0
KTA1 172124Z 17012KT 36/15 A2996 RMK A01 T03620153  RH  029%=      5-min Rain = 0
KTA1 172125Z 17008KT 36/15 A2996 RMK A01 T03630151  RH  028%=      5-min Rain = 0
KTA1 172126Z 18011KT 36/15 A2996 RMK A01 T03640154  RH  029%=      5-min Rain = 0
KTA1 172127Z 18012KT 36/16 A2996 RMK A01 T03640156  RH  029%=      5-min Rain = 0
KTA1 172128Z 16009KT 36/15 A2996 RMK A01 T03620154  RH  029%=      5-min Rain = 0
KTA1 172129Z 14010KT 36/15 A2996 RMK A01 T03630154  RH  029%=      5-min Rain = 0
KTA1 172130Z 17008KT 36/16 A2996 RMK A01 T03640159  RH  030%=      5-min Rain = 0
KTA1 172131Z 16006KT 36/16 A2996 RMK A01 T03630161  RH  030%=      5-min Rain = 0
KTA1 172132Z 16004KT 36/16 A2996 RMK A01 T03610161  RH  030%=      5-min Rain = 0
KTA1 172133Z 17005KT 36/16 A2996 RMK A01 T03610161  RH  031%=      5-min Rain = 0
KTA1 172134Z 17009KT 36/16 A2996 RMK A01 T03620161  RH  031%=      5-min Rain = 0
KTA1 172135Z 13010KT 36/16 A2996 RMK A01 T03620163  RH  031%=      5-min Rain = 0
KTA1 172136Z 14014KT 36/16 A2996 RMK A01 T03620161  RH  030%=      5-min Rain = 0
KTA1 172137Z 13015KT 36/16 A2996 RMK A01 T03620158  RH  030%=      5-min Rain = 0
KTA1 172138Z 14012KT 36/16 A2995 RMK A01 T03630157  RH  029%=      5-min Rain = 0
KTA1 172139Z 12012KT 37/16 A2995 RMK A01 T03670159  RH  029%=      5-min Rain = 0
KTA1 172140Z 12010KT 37/16 A2995 RMK A01 T03660160  RH  030%=      5-min Rain = 0
KTA1 172141Z 12011KT 37/16 A2995 RMK A01 T03660159  RH  029%=      5-min Rain = 0
KTA1 172142Z 15009G14KT 37/16 A2995 RMK A01 T03660162  RH  030%=      5-min Rain = 0
KTA1 172143Z 15010KT 37/16 A2995 RMK A01 T03700163  RH  029%=      5-min Rain = 0
KTA1 172144Z 16009KT 37/16 A2995 RMK A01 T03710163  RH  029%=      5-min Rain = 0
KTA1 172145Z 17006KT 37/16 A2995 RMK A01 T03710162  RH  029%=      5-min Rain = 0
KTA1 172146Z 17006KT 37/16 A2995 RMK A01 T03720157  RH  028%=      5-min Rain = 0
KTA1 172147Z 16008KT 37/16 A2995 RMK A01 T03720159  RH  028%=      5-min Rain = 0
KTA1 172148Z 16010KT 37/16 A2995 RMK A01 T03730161  RH  029%=      5-min Rain = 0
KTA1 172149Z 15011KT 37/16 A2995 RMK A01 T03720162  RH  029%=      5-min Rain = 0
KTA1 172150Z 15007KT 37/16 A2995 RMK A01 T03690163  RH  030%=      5-min Rain = 0
KTA1 172151Z 17010G15KT 37/16 A2995 RMK A01 T03700163  RH  029%=      5-min Rain = 0
KTA1 172152Z 18009KT 37/16 A2995 RMK A01 T03680158  RH  029%=      5-min Rain = 0
KTA1 172153Z 19008KT 36/15 A2995 RMK A01 T03610154  RH  029%=      5-min Rain = 0
KTA1 172154Z 18006KT 36/16 A2995 RMK A01 T03560156  RH  030%=      5-min Rain = 0
KTA1 172155Z 16005KT 35/16 A2995 RMK A01 T03540157  RH  031%=      5-min Rain = 0
KTA1 172156Z 14013KT 36/16 A2995 RMK A01 T03550159  RH  031%=      5-min Rain = 0
KTA1 172157Z 12012KT 36/16 A2995 RMK A01 T03600161  RH  031%=      5-min Rain = 0
KTA1 172158Z 12012KT 36/16 A2995 RMK A01 T03610161  RH  031%=      5-min Rain = 0
KTA1 172159Z 13012KT 36/16 A2995 RMK A01 T03620163  RH  031%=      5-min Rain = 0
KTA1 172200Z 14010KT 36/16 A2995 RMK A01 T03630164  RH  031%=      5-min Rain = 0
KTA1 172201Z 16011KT 37/17 A2995 RMK A01 T03650165  RH  031%=      5-min Rain = 0
KTA1 172202Z 18012KT 37/16 A2995 RMK A01 T03670161  RH  030%=      5-min Rain = 0
KTA1 172203Z 18010G17KT 37/16 A2995 RMK A01 T03660159  RH  029%=      5-min Rain = 0
KTA1 172204Z 16007KT 36/16 A2994 RMK A01 T03620159  RH  030%=      5-min Rain = 0
KTA1 172205Z 17009G15KT 36/16 A2994 RMK A01 T03610161  RH  030%=      5-min Rain = 0
KTA1 172206Z 18012KT 36/16 A2994 RMK A01 T03630158  RH  030%=      5-min Rain = 0
KTA1 172207Z 17009KT 36/16 A2994 RMK A01 T03630160  RH  030%=      5-min Rain = 0
KTA1 172208Z 17011KT 36/16 A2994 RMK A01 T03620162  RH  031%=      5-min Rain = 0
KTA1 172209Z 16013KT 37/16 A2994 RMK A01 T03650162  RH  030%=      5-min Rain = 0
KTA1 172210Z 18009KT 37/16 A2994 RMK A01 T03660160  RH  030%=      5-min Rain = 0
KTA1 172211Z 18009KT 37/16 A2994 RMK A01 T03650160  RH  030%=      5-min Rain = 0
KTA1 172212Z 17013KT 36/16 A2994 RMK A01 T03640159  RH  030%=      5-min Rain = 0
KTA1 172213Z 16012KT 37/16 A2994 RMK A01 T03650158  RH  029%=      5-min Rain = 0
KTA1 172214Z 14010KT 37/16 A2994 RMK A01 T03650158  RH  029%=      5-min Rain = 0
KTA1 172215Z 12007KT 37/16 A2994 RMK A01 T03650157  RH  029%=      5-min Rain = 0
KTA1 172216Z 11006KT 36/16 A2994 RMK A01 T03630156  RH  029%=      5-min Rain = 0
KTA1 172217Z 13009KT 36/16 A2994 RMK A01 T03610158  RH  030%=      5-min Rain = 0
KTA1 172218Z 15007KT 36/16 A2994 RMK A01 T03610158  RH  030%=      5-min Rain = 0
KTA1 172219Z 15010G15KT 36/16 A2994 RMK A01 T03640160  RH  030%=      5-min Rain = 0
KTA1 172220Z 17013KT 37/16 A2994 RMK A01 T03660160  RH  030%=      5-min Rain = 0
KTA1 172221Z 16010KT 37/16 A2994 RMK A01 T03660160  RH  029%=      5-min Rain = 0
KTA1 172222Z 14008KT 37/16 A2994 RMK A01 T03680163  RH  030%=      5-min Rain = 0
KTA1 172223Z 16009KT 37/16 A2994 RMK A01 T03710164  RH  030%=      5-min Rain = 0
KTA1 172224Z 16010KT 37/16 A2994 RMK A01 T03700162  RH  029%=      5-min Rain = 0
KTA1 172225Z 16008KT 36/16 A2994 RMK A01 T03640161  RH  030%=      5-min Rain = 0
KTA1 172226Z 16006KT 36/16 A2994 RMK A01 T03620159  RH  030%=      5-min Rain = 0
KTA1 172227Z 17004KT 36/16 A2994 RMK A01 T03620160  RH  030%=      5-min Rain = 0
KTA1 172228Z 18008KT 37/16 A2994 RMK A01 T03660160  RH  030%=      5-min Rain = 0
KTA1 172229Z 16007KT 37/16 A2994 RMK A01 T03690158  RH  029%=      5-min Rain = 0
KTA1 172230Z 17007KT 37/16 A2994 RMK A01 T03680160  RH  029%=      5-min Rain = 0
KTA1 172231Z 15007KT 37/16 A2994 RMK A01 T03670160  RH  029%=      5-min Rain = 0
KTA1 172232Z 17009KT 37/16 A2994 RMK A01 T03670160  RH  029%=      5-min Rain = 0
KTA1 172233Z 17011KT 37/16 A2994 RMK A01 T03690161  RH  029%=      5-min Rain = 0
KTA1 172234Z 16008KT 37/16 A2994 RMK A01 T03680162  RH  030%=      5-min Rain = 0
KTA1 172235Z 14007KT 37/17 A2994 RMK A01 T03670165  RH  030%=      5-min Rain = 0
KTA1 172236Z 12009KT 37/17 A2993 RMK A01 T03680166  RH  030%=      5-min Rain = 0
KTA1 172237Z 13011KT 37/17 A2993 RMK A01 T03680167  RH  031%=      5-min Rain = 0
KTA1 172238Z 14014KT 37/17 A2993 RMK A01 T03670167  RH  031%=      5-min Rain = 0
KTA1 172239Z 13012KT 37/17 A2994 RMK A01 T03670167  RH  031%=      5-min Rain = 0
KTA1 172240Z 15009KT 37/17 A2993 RMK A01 T03670167  RH  031%=      5-min Rain = 0
KTA1 172241Z 14012G17KT 37/17 A2993 RMK A01 T03670167  RH  031%=      5-min Rain = 0
KTA1 172242Z 13012KT 37/17 A2994 RMK A01 T03670168  RH  031%=      5-min Rain = 0
KTA1 172243Z 14008KT 37/17 A2994 RMK A01 T03670168  RH  031%=      5-min Rain = 0
KTA1 172244Z 17012KT 37/17 A2993 RMK A01 T03690168  RH  030%=      5-min Rain = 0
KTA1 172245Z 19011KT 37/16 A2993 RMK A01 T03700164  RH  030%=      5-min Rain = 0
KTA1 172246Z 17011KT 37/16 A2994 RMK A01 T03700162  RH  029%=      5-min Rain = 0
KTA1 172247Z 16011KT 37/16 A2994 RMK A01 T03690161  RH  029%=      5-min Rain = 0
KTA1 172248Z 17009KT 37/16 A2993 RMK A01 T03670159  RH  029%=      5-min Rain = 0
KTA1 172249Z 19009KT 37/16 A2993 RMK A01 T03670159  RH  029%=      5-min Rain = 0
KTA1 172250Z 20011KT 37/16 A2993 RMK A01 T03670157  RH  029%=      5-min Rain = 0
KTA1 172251Z 16010KT 37/16 A2993 RMK A01 T03660161  RH  030%=      5-min Rain = 0
KTA1 172252Z 16011KT 37/17 A2993 RMK A01 T03670166  RH  030%=      5-min Rain = 0
KTA1 172253Z 16012KT 37/17 A2993 RMK A01 T03680166  RH  030%=      5-min Rain = 0
KTA1 172254Z 15012KT 37/17 A2993 RMK A01 T03660166  RH  031%=      5-min Rain = 0
KTA1 172255Z 15012KT 37/17 A2993 RMK A01 T03660168  RH  031%=      5-min Rain = 0
KTA1 172256Z 14012KT 37/17 A2993 RMK A01 T03660166  RH  031%=      5-min Rain = 0
KTA1 172257Z 13012KT 37/17 A2993 RMK A01 T03650167  RH  031%=      5-min Rain = 0
KTA1 172258Z 15012KT 36/17 A2993 RMK A01 T03640167  RH  031%=      5-min Rain = 0
KTA1 172259Z 16010G15KT 36/17 A2993 RMK A01 T03640167  RH  031%=      5-min Rain = 0
KTA1 172300Z 18009G14KT 37/17 A2993 RMK A01 T03650169  RH  031%=      5-min Rain = 0
KTA1 172301Z 19007KT 37/16 A2993 RMK A01 T03670164  RH  030%=      5-min Rain = 0
KTA1 172302Z 18013G18KT 37/16 A2993 RMK A01 T03670162  RH  030%=      5-min Rain = 0
KTA1 172303Z 16015KT 37/16 A2993 RMK A01 T03690161  RH  029%=      5-min Rain = 0
KTA1 172304Z 16009G14KT 37/16 A2993 RMK A01 T03680162  RH  030%=      5-min Rain = 0
KTA1 172305Z 17013KT 37/16 A2993 RMK A01 T03670161  RH  030%=      5-min Rain = 0
KTA1 172306Z 17011KT 37/16 A2993 RMK A01 T03670159  RH  029%=      5-min Rain = 0
KTA1 172307Z 15008KT 37/16 A2993 RMK A01 T03670160  RH  029%=      5-min Rain = 0
KTA1 172308Z 17011G16KT 37/16 A2993 RMK A01 T03680159  RH  029%=      5-min Rain = 0
KTA1 172309Z 17011KT 37/16 A2993 RMK A01 T03680157  RH  029%=      5-min Rain = 0
KTA1 172310Z 17013KT 37/16 A2993 RMK A01 T03680159  RH  029%=      5-min Rain = 0
KTA1 172311Z 17011KT 37/16 A2993 RMK A01 T03690156  RH  028%=      5-min Rain = 0
KTA1 172312Z 15010KT 37/16 A2993 RMK A01 T03690155  RH  028%=      5-min Rain = 0
KTA1 172313Z 14010KT 37/16 A2993 RMK A01 T03690164  RH  030%=      5-min Rain = 0
KTA1 172314Z 16009KT 37/16 A2993 RMK A01 T03680157  RH  029%=      5-min Rain = 0
KTA1 172315Z 15009KT 37/16 A2993 RMK A01 T03680156  RH  029%=      5-min Rain = 0
KTA1 172316Z 17013KT 37/16 A2993 RMK A01 T03680157  RH  029%=      5-min Rain = 0
KTA1 172317Z 17012KT 37/16 A2993 RMK A01 T03670161  RH  030%=      5-min Rain = 0
KTA1 172318Z 17011G16KT 37/16 A2993 RMK A01 T03650163  RH  030%=      5-min Rain = 0
KTA1 172319Z 16010KT 37/16 A2993 RMK A01 T03650163  RH  030%=      5-min Rain = 0
KTA1 172320Z 15009KT 36/16 A2993 RMK A01 T03640162  RH  030%=      5-min Rain = 0
KTA1 172321Z 15008KT 36/16 A2993 RMK A01 T03630164  RH  031%=      5-min Rain = 0
KTA1 172322Z 16008KT 36/17 A2993 RMK A01 T03630166  RH  031%=      5-min Rain = 0
KTA1 172323Z 16012KT 36/17 A2993 RMK A01 T03630166  RH  031%=      5-min Rain = 0
KTA1 172324Z 16011G17KT 36/16 A2993 RMK A01 T03610164  RH  031%=      5-min Rain = 0
KTA1 172325Z 16013KT 36/16 A2993 RMK A01 T03590164  RH  032%=      5-min Rain = 0
KTA1 172326Z 16014KT 36/16 A2993 RMK A01 T03560162  RH  032%=      5-min Rain = 0
KTA1 172327Z 16014KT 35/16 A2993 RMK A01 T03540162  RH  032%=      5-min Rain = 0
KTA1 172328Z 17012KT 35/16 A2993 RMK A01 T03530162  RH  032%=      5-min Rain = 0
KTA1 172329Z 17012KT 35/16 A2993 RMK A01 T03520160  RH  032%=      5-min Rain = 0
KTA1 172330Z 17013KT 35/16 A2993 RMK A01 T03530159  RH  031%=      5-min Rain = 0
KTA1 172331Z 17010KT 35/16 A2993 RMK A01 T03530158  RH  031%=      5-min Rain = 0
KTA1 172332Z 16012KT 35/16 A2993 RMK A01 T03540159  RH  031%=      5-min Rain = 0
KTA1 172333Z 16010KT 35/16 A2993 RMK A01 T03530158  RH  031%=      5-min Rain = 0
KTA1 172334Z 16012KT 35/16 A2993 RMK A01 T03540160  RH  032%=      5-min Rain = 0
KTA1 172335Z 15013KT 36/17 A2993 RMK A01 T03560166  RH  032%=      5-min Rain = 0
KTA1 172336Z 15009KT 36/17 A2993 RMK A01 T03570172  RH  034%=      5-min Rain = 0
KTA1 172337Z 15010KT 36/17 A2993 RMK A01 T03580174  RH  034%=      5-min Rain = 0
KTA1 172338Z 14013G18KT 36/18 A2992 RMK A01 T03580175  RH  034%=      5-min Rain = 0
KTA1 172339Z 13017KT 36/18 A2992 RMK A01 T03580175  RH  034%=      5-min Rain = 0
KTA1 172340Z 14017KT 36/17 A2992 RMK A01 T03550173  RH  034%=      5-min Rain = 0
KTA1 172341Z 14014KT 35/17 A2992 RMK A01 T03530172  RH  034%=      5-min Rain = 0
KTA1 172342Z 14012KT 35/17 A2992 RMK A01 T03520173  RH  035%=      5-min Rain = 0
KTA1 172343Z 14014KT 35/17 A2992 RMK A01 T03510172  RH  035%=      5-min Rain = 0
KTA1 172344Z 14013KT 35/17 A2992 RMK A01 T03500171  RH  035%=      5-min Rain = 0
KTA1 172345Z 14013KT 35/17 A2992 RMK A01 T03500172  RH  035%=      5-min Rain = 0
KTA1 172346Z 17010KT 35/17 A2992 RMK A01 T03520172  RH  034%=      5-min Rain = 0
KTA1 172347Z 16011KT 36/17 A2992 RMK A01 T03550172  RH  034%=      5-min Rain = 0
KTA1 172348Z 15011KT 36/17 A2992 RMK A01 T03580174  RH  034%=      5-min Rain = 0
KTA1 172349Z 15013KT 36/18 A2992 RMK A01 T03590175  RH  034%=      5-min Rain = 0
KTA1 172350Z 14012KT 36/18 A2992 RMK A01 T03570176  RH  034%=      5-min Rain = 0
KTA1 172351Z 14013KT 36/18 A2992 RMK A01 T03550177  RH  035%=      5-min Rain = 0
KTA1 172352Z 14013G18KT 35/17 A2992 RMK A01 T03540174  RH  035%=      5-min Rain = 0
KTA1 172353Z 15014KT 35/17 A2992 RMK A01 T03540174  RH  035%=      5-min Rain = 0
KTA1 172354Z 15013KT 35/17 A2992 RMK A01 T03530173  RH  035%=      5-min Rain = 0
KTA1 172355Z 15011KT 35/17 A2992 RMK A01 T03530173  RH  035%=      5-min Rain = 0
KTA1 172356Z 15010KT 35/17 A2992 RMK A01 T03520174  RH  035%=      5-min Rain = 0
KTA1 172357Z 13013KT 35/17 A2992 RMK A01 T03530174  RH  035%=      5-min Rain = 0
KTA1 172358Z 13015KT 35/17 A2992 RMK A01 T03540173  RH  034%=      5-min Rain = 0
KTA1 172359Z 13013KT 35/17 A2992 RMK A01 T03540174  RH  034%=      5-min Rain = 0
KTA1 180000Z 14014G20KT 35/18 A2992 RMK A01 T03540175  RH  035%=      5-min Rain = 0
KTA1 180001Z 14018G23KT 36/17 A2992 RMK A01 T03550174  RH  034%=      5-min Rain = 0
KTA1 180002Z 14016KT 36/17 A2992 RMK A01 T03550174  RH  034%=      5-min Rain = 0
KTA1 180003Z 15017KT 36/17 A2992 RMK A01 T03550173  RH  034%=      5-min Rain = 0
KTA1 180004Z 15012KT 36/17 A2992 RMK A01 T03550174  RH  034%=      5-min Rain = 0
KTA1 180005Z 14012KT 35/18 A2992 RMK A01 T03540177  RH  035%=      5-min Rain = 0
KTA1 180006Z 14015KT 36/18 A2992 RMK A01 T03550177  RH  035%=      5-min Rain = 0
KTA1 180007Z 14013KT 36/18 A2992 RMK A01 T03560177  RH  035%=      5-min Rain = 0
KTA1 180008Z 14013KT 36/18 A2992 RMK A01 T03560177  RH  035%=      5-min Rain = 0
KTA1 180009Z 15013KT 36/18 A2992 RMK A01 T03560177  RH  035%=      5-min Rain = 0
KTA1 180010Z 15011KT 36/18 A2992 RMK A01 T03550176  RH  035%=      5-min Rain = 0
KTA1 180011Z 16012KT 35/18 A2992 RMK A01 T03540177  RH  035%=      5-min Rain = 0
KTA1 180012Z 16011KT 35/18 A2992 RMK A01 T03530176  RH  035%=      5-min Rain = 0
KTA1 180013Z 16012G17KT 35/18 A2992 RMK A01 T03530176  RH  035%=      5-min Rain = 0
KTA1 180014Z 16016KT 35/18 A2992 RMK A01 T03530175  RH  035%=      5-min Rain = 0
KTA1 180015Z 16014KT 35/17 A2992 RMK A01 T03530174  RH  035%=      5-min Rain = 0
KTA1 180016Z 16014G19KT 35/17 A2992 RMK A01 T03530174  RH  035%=      5-min Rain = 0
KTA1 180017Z 16014KT 35/17 A2992 RMK A01 T03520174  RH  035%=      5-min Rain = 0
KTA1 180018Z 15015KT 35/17 A2992 RMK A01 T03520174  RH  035%=      5-min Rain = 0
KTA1 180019Z 16015KT 35/17 A2992 RMK A01 T03510174  RH  035%=      5-min Rain = 0
KTA1 180020Z 16012KT 35/18 A2992 RMK A01 T03510175  RH  035%=      5-min Rain = 0
KTA1 180021Z 16012G17KT 35/18 A2992 RMK A01 T03510175  RH  035%=      5-min Rain = 0
KTA1 180022Z 15012KT 35/18 A2992 RMK A01 T03510175  RH  035%=      5-min Rain = 0
KTA1 180023Z 15013KT 35/18 A2992 RMK A01 T03510177  RH  036%=      5-min Rain = 0
KTA1 180024Z 15015KT 35/18 A2992 RMK A01 T03520177  RH  036%=      5-min Rain = 0
KTA1 180025Z 16012G17KT 35/18 A2992 RMK A01 T03510178  RH  036%=      5-min Rain = 0
KTA1 180026Z 17014KT 35/18 A2992 RMK A01 T03500177  RH  036%=      5-min Rain = 0
KTA1 180027Z 16011KT 35/18 A2993 RMK A01 T03470176  RH  036%=      5-min Rain = 0
KTA1 180028Z 16010KT 35/18 A2993 RMK A01 T03460177  RH  037%=      5-min Rain = 0
KTA1 180029Z 16013KT 35/18 A2993 RMK A01 T03450177  RH  037%=      5-min Rain = 0
KTA1 180030Z 16013KT 34/18 A2993 RMK A01 T03440175  RH  037%=      5-min Rain = 0
KTA1 180031Z 17013KT 34/17 A2993 RMK A01 T03440174  RH  037%=      5-min Rain = 0
KTA1 180032Z 16012KT 35/18 A2993 RMK A01 T03460175  RH  036%=      5-min Rain = 0
KTA1 180033Z 16011KT 35/18 A2993 RMK A01 T03470175  RH  036%=      5-min Rain = 0
KTA1 180034Z 16010KT 35/18 A2993 RMK A01 T03470176  RH  036%=      5-min Rain = 0
KTA1 180035Z 16011KT 35/18 A2993 RMK A01 T03470176  RH  036%=      5-min Rain = 0
KTA1 180036Z 16012KT 35/18 A2993 RMK A01 T03470176  RH  036%=      5-min Rain = 0
KTA1 180037Z 16011KT 35/18 A2993 RMK A01 T03460177  RH  037%=      5-min Rain = 0
KTA1 180038Z 16009KT 35/18 A2993 RMK A01 T03450177  RH  037%=      5-min Rain = 0
KTA1 180039Z 16012KT 34/18 A2993 RMK A01 T03440177  RH  037%=      5-min Rain = 0
KTA1 180040Z 16011KT 34/18 A2993 RMK A01 T03430177  RH  037%=      5-min Rain = 0
KTA1 180041Z 15012KT 34/18 A2993 RMK A01 T03420177  RH  037%=      5-min Rain = 0
KTA1 180042Z 16011KT 34/18 A2993 RMK A01 T03420177  RH  038%=      5-min Rain = 0
KTA1 180043Z 15013KT 34/18 A2993 RMK A01 T03410176  RH  038%=      5-min Rain = 0
KTA1 180044Z 15012KT 34/18 A2993 RMK A01 T03420176  RH  037%=      5-min Rain = 0
KTA1 180045Z 15012KT 34/18 A2993 RMK A01 T03430176  RH  037%=      5-min Rain = 0
KTA1 180046Z 15012KT 34/18 A2993 RMK A01 T03430176  RH  037%=      5-min Rain = 0
KTA1 180047Z 15013KT 34/18 A2993 RMK A01 T03430176  RH  037%=      5-min Rain = 0
KTA1 180048Z 15014KT 34/18 A2993 RMK A01 T03420176  RH  037%=      5-min Rain = 0
KTA1 180049Z 15013KT 34/18 A2993 RMK A01 T03410177  RH  038%=      5-min Rain = 0
KTA1 180050Z 16013KT 34/18 A2993 RMK A01 T03410177  RH  038%=      5-min Rain = 0
KTA1 180051Z 15011G16KT 34/18 A2993 RMK A01 T03400177  RH  038%=      5-min Rain = 0
KTA1 180052Z 16015KT 34/18 A2993 RMK A01 T03390177  RH  038%=      5-min Rain = 0
KTA1 180053Z 15013KT 34/18 A2993 RMK A01 T03380177  RH  038%=      5-min Rain = 0
KTA1 180054Z 16012G18KT 34/18 A2993 RMK A01 T03380177  RH  038%=      5-min Rain = 0
KTA1 180055Z 16014KT 34/18 A2993 RMK A01 T03380177  RH  039%=      5-min Rain = 0
KTA1 180056Z 16012KT 34/18 A2993 RMK A01 T03370178  RH  039%=      5-min Rain = 0
KTA1 180057Z 16013G18KT 34/18 A2993 RMK A01 T03370178  RH  039%=      5-min Rain = 0
KTA1 180058Z 15014G19KT 34/18 A2993 RMK A01 T03380178  RH  039%=      5-min Rain = 0
KTA1 180059Z 16016KT 34/18 A2993 RMK A01 T03380178  RH  039%=      5-min Rain = 0
KTA1 180100Z 15017KT 34/18 A2993 RMK A01 T03380178  RH  039%=      5-min Rain = 0
KTA1 180101Z 15016KT 34/18 A2993 RMK A01 T03380177  RH  039%=      5-min Rain = 0
KTA1 180102Z 15012KT 34/18 A2993 RMK A01 T03380178  RH  039%=      5-min Rain = 0
KTA1 180103Z 15014KT 34/18 A2993 RMK A01 T03380178  RH  039%=      5-min Rain = 0
KTA1 180104Z 16014KT 34/18 A2993 RMK A01 T03380178  RH  039%=      5-min Rain = 0
KTA1 180105Z 16014KT 34/18 A2993 RMK A01 T03370178  RH  039%=      5-min Rain = 0
KTA1 180106Z 15015KT 34/18 A2993 RMK A01 T03370178  RH  039%=      5-min Rain = 0
KTA1 180107Z 16015KT 34/18 A2993 RMK A01 T03370177  RH  039%=      5-min Rain = 0
KTA1 180108Z 16013KT 34/18 A2993 RMK A01 T03360177  RH  039%=      5-min Rain = 0
KTA1 180109Z 15015KT 34/18 A2993 RMK A01 T03360177  RH  039%=      5-min Rain = 0
KTA1 180110Z 16015KT 34/18 A2993 RMK A01 T03360177  RH  039%=      5-min Rain = 0
KTA1 180111Z 16012KT 34/18 A2993 RMK A01 T03360177  RH  039%=      5-min Rain = 0
KTA1 180112Z 16013KT 34/18 A2994 RMK A01 T03350177  RH  039%=      5-min Rain = 0
KTA1 180113Z 16014KT 34/18 A2994 RMK A01 T03350177  RH  039%=      5-min Rain = 0
KTA1 180114Z 16013KT 34/18 A2994 RMK A01 T03350176  RH  039%=      5-min Rain = 0
KTA1 180115Z 15013KT 34/18 A2994 RMK A01 T03350177  RH  039%=      5-min Rain = 0
KTA1 180116Z 15014KT 34/18 A2994 RMK A01 T03350176  RH  039%=      5-min Rain = 0
KTA1 180117Z 16017KT 33/18 A2994 RMK A01 T03340176  RH  039%=      5-min Rain = 0
KTA1 180118Z 15014KT 33/18 A2994 RMK A01 T03340175  RH  039%=      5-min Rain = 0
KTA1 180119Z 15014KT 33/18 A2994 RMK A01 T03330176  RH  039%=      5-min Rain = 0
KTA1 180120Z 16013KT 33/18 A2994 RMK A01 T03330175  RH  039%=      5-min Rain = 0
KTA1 180121Z 15012G19KT 33/18 A2994 RMK A01 T03320175  RH  039%=      5-min Rain = 0
KTA1 180122Z 16014KT 33/18 A2994 RMK A01 T03320175  RH  039%=      5-min Rain = 0
KTA1 180123Z 15013KT 33/18 A2994 RMK A01 T03310175  RH  039%=      5-min Rain = 0
KTA1 180124Z 16014KT 33/17 A2994 RMK A01 T03310174  RH  039%=      5-min Rain = 0
KTA1 180125Z 15012KT 33/17 A2994 RMK A01 T03310174  RH  039%=      5-min Rain = 0
KTA1 180126Z 15012KT 33/17 A2994 RMK A01 T03300173  RH  039%=      5-min Rain = 0
KTA1 180127Z 15012KT 33/17 A2994 RMK A01 T03300174  RH  039%=      5-min Rain = 0
KTA1 180128Z 15012KT 33/17 A2994 RMK A01 T03290173  RH  039%=      5-min Rain = 0
KTA1 180129Z 15010G15KT 33/17 A2994 RMK A01 T03290174  RH  040%=      5-min Rain = 0
KTA1 180130Z 16012KT 33/17 A2994 RMK A01 T03290174  RH  040%=      5-min Rain = 0
KTA1 180131Z 15015KT 33/17 A2994 RMK A01 T03280173  RH  040%=      5-min Rain = 0
KTA1 180132Z 15014KT 33/17 A2994 RMK A01 T03290174  RH  040%=      5-min Rain = 0
KTA1 180133Z 16014KT 33/17 A2994 RMK A01 T03280173  RH  040%=      5-min Rain = 0
KTA1 180134Z 16014KT 33/17 A2994 RMK A01 T03280173  RH  040%=      5-min Rain = 0
KTA1 180135Z 16014KT 33/17 A2994 RMK A01 T03280173  RH  040%=      5-min Rain = 0
KTA1 180136Z 16012G18KT 33/17 A2995 RMK A01 T03280173  RH  040%=      5-min Rain = 0
KTA1 180137Z 16012KT 33/17 A2995 RMK A01 T03270173  RH  040%=      5-min Rain = 0
KTA1 180138Z 16014G19KT 33/17 A2995 RMK A01 T03270173  RH  040%=      5-min Rain = 0
KTA1 180139Z 16012G17KT 33/17 A2995 RMK A01 T03270173  RH  040%=      5-min Rain = 0
KTA1 180140Z 16014G19KT 33/17 A2995 RMK A01 T03270173  RH  040%=      5-min Rain = 0
KTA1 180141Z 15013KT 33/17 A2995 RMK A01 T03270172  RH  040%=      5-min Rain = 0
KTA1 180142Z 16013KT 33/17 A2995 RMK A01 T03270173  RH  040%=      5-min Rain = 0
KTA1 180143Z 16012KT 33/17 A2995 RMK A01 T03270173  RH  040%=      5-min Rain = 0
KTA1 180144Z 15013KT 33/17 A2995 RMK A01 T03270173  RH  040%=      5-min Rain = 0
KTA1 180145Z 15012KT 33/17 A2995 RMK A01 T03260173  RH  040%=      5-min Rain = 0
KTA1 180146Z 16015KT 33/17 A2995 RMK A01 T03260173  RH  040%=      5-min Rain = 0
KTA1 180147Z 15013KT 33/17 A2995 RMK A01 T03260173  RH  040%=      5-min Rain = 0
KTA1 180148Z 16011KT 33/17 A2995 RMK A01 T03260173  RH  040%=      5-min Rain = 0
KTA1 180149Z 15011KT 33/17 A2995 RMK A01 T03250173  RH  040%=      5-min Rain = 0
KTA1 180150Z 16012KT 33/17 A2995 RMK A01 T03250173  RH  040%=      5-min Rain = 0
KTA1 180151Z 16011KT 33/17 A2995 RMK A01 T03250173  RH  040%=      5-min Rain = 0
KTA1 180152Z 16014KT 32/17 A2995 RMK A01 T03240173  RH  040%=      5-min Rain = 0
KTA1 180153Z 15012KT 32/17 A2996 RMK A01 T03240173  RH  041%=      5-min Rain = 0
KTA1 180154Z 16012KT 32/17 A2996 RMK A01 T03240173  RH  041%=      5-min Rain = 0
KTA1 180155Z 16015KT 32/17 A2996 RMK A01 T03240173  RH  041%=      5-min Rain = 0
KTA1 180156Z 16014KT 32/17 A2996 RMK A01 T03240173  RH  041%=      5-min Rain = 0
KTA1 180157Z 15014G19KT 32/17 A2996 RMK A01 T03230173  RH  041%=      5-min Rain = 0
KTA1 180158Z 16013KT 32/17 A2996 RMK A01 T03230173  RH  041%=      5-min Rain = 0
KTA1 180159Z 16013G18KT 32/17 A2996 RMK A01 T03230173  RH  041%=      5-min Rain = 0
KTA1 180200Z 16014KT 32/17 A2996 RMK A01 T03230173  RH  041%=      5-min Rain = 0
KTA1 180201Z 16015KT 32/17 A2996 RMK A01 T03230173  RH  041%=      5-min Rain = 0
KTA1 180202Z 16012KT 32/17 A2996 RMK A01 T03230173  RH  041%=      5-min Rain = 0
KTA1 180203Z 16009KT 32/17 A2996 RMK A01 T03220173  RH  041%=      5-min Rain = 0
KTA1 180204Z 16012KT 32/17 A2996 RMK A01 T03220173  RH  041%=      5-min Rain = 0
KTA1 180205Z 16012KT 32/17 A2996 RMK A01 T03220172  RH  041%=      5-min Rain = 0
KTA1 180206Z 15012KT 32/17 A2996 RMK A01 T03220173  RH  041%=      5-min Rain = 0
KTA1 180207Z 16013KT 32/17 A2996 RMK A01 T03220173  RH  041%=      5-min Rain = 0
KTA1 180208Z 15012G17KT 32/17 A2996 RMK A01 T03210172  RH  041%=      5-min Rain = 0
KTA1 180209Z 15012KT 32/17 A2996 RMK A01 T03210173  RH  041%=      5-min Rain = 0
KTA1 180210Z 16011KT 32/17 A2996 RMK A01 T03210173  RH  041%=      5-min Rain = 0
KTA1 180211Z 15013KT 32/17 A2996 RMK A01 T03200173  RH  041%=      5-min Rain = 0
KTA1 180212Z 15012KT 32/17 A2996 RMK A01 T03200173  RH  041%=      5-min Rain = 0
KTA1 180213Z 15014KT 32/17 A2996 RMK A01 T03200173  RH  041%=      5-min Rain = 0
KTA1 180214Z 15013KT 32/17 A2996 RMK A01 T03200172  RH  041%=      5-min Rain = 0
KTA1 180215Z 15012G17KT 32/17 A2996 RMK A01 T03200172  RH  041%=      5-min Rain = 0
KTA1 180216Z 16014KT 32/17 A2996 RMK A01 T03200172  RH  041%=      5-min Rain = 0
KTA1 180217Z 16011KT 32/17 A2996 RMK A01 T03200173  RH  041%=      5-min Rain = 0
KTA1 180218Z 16014KT 32/17 A2996 RMK A01 T03200172  RH  041%=      5-min Rain = 0
KTA1 180219Z 16016KT 32/17 A2996 RMK A01 T03190172  RH  041%=      5-min Rain = 0
KTA1 180220Z 16015KT 32/17 A2996 RMK A01 T03200172  RH  041%=      5-min Rain = 0
KTA1 180221Z 15014KT 32/17 A2996 RMK A01 T03200172  RH  041%=      5-min Rain = 0
KTA1 180222Z 16015KT 32/17 A2996 RMK A01 T03200172  RH  041%=      5-min Rain = 0
KTA1 180223Z 16014KT 32/17 A2996 RMK A01 T03200172  RH  041%=      5-min Rain = 0
KTA1 180224Z 16014KT 32/17 A2996 RMK A01 T03200172  RH  041%=      5-min Rain = 0
KTA1 180225Z 16016KT 32/17 A2996 RMK A01 T03190172  RH  041%=      5-min Rain = 0
KTA1 180226Z 16012KT 32/17 A2996 RMK A01 T03190171  RH  041%=      5-min Rain = 0
KTA1 180227Z 16014KT 32/17 A2996 RMK A01 T03190171  RH  041%=      5-min Rain = 0
KTA1 180228Z 16014KT 32/17 A2996 RMK A01 T03190171  RH  041%=      5-min Rain = 0
KTA1 180229Z 16015KT 32/17 A2997 RMK A01 T03190171  RH  041%=      5-min Rain = 0
KTA1 180230Z 16015KT 32/17 A2997 RMK A01 T03190171  RH  041%=      5-min Rain = 0
KTA1 180231Z 16014G19KT 32/17 A2997 RMK A01 T03190170  RH  041%=      5-min Rain = 0
KTA1 180232Z 16013KT 32/17 A2997 RMK A01 T03200171  RH  041%=      5-min Rain = 0
KTA1 180233Z 16013KT 32/17 A2997 RMK A01 T03190171  RH  041%=      5-min Rain = 0
KTA1 180234Z 16010G16KT 32/17 A2997 RMK A01 T03190171  RH  041%=      5-min Rain = 0
KTA1 180235Z 16014KT 32/17 A2997 RMK A01 T03190171  RH  041%=      5-min Rain = 0
KTA1 180236Z 16013KT 32/17 A2997 RMK A01 T03190171  RH  041%=      5-min Rain = 0
KTA1 180237Z 16015KT 32/17 A2997 RMK A01 T03190171  RH  041%=      5-min Rain = 0
KTA1 180238Z 16013KT 32/17 A2997 RMK A01 T03190171  RH  041%=      5-min Rain = 0
KTA1 180239Z 16012KT 32/17 A2997 RMK A01 T03180170  RH  041%=      5-min Rain = 0
KTA1 180240Z 16013KT 32/17 A2997 RMK A01 T03180170  RH  041%=      5-min Rain = 0
KTA1 180241Z 16013KT 32/17 A2998 RMK A01 T03180170  RH  041%=      5-min Rain = 0
KTA1 180242Z 17011KT 32/17 A2998 RMK A01 T03180170  RH  041%=      5-min Rain = 0
KTA1 180243Z 17015KT 32/17 A2998 RMK A01 T03170170  RH  041%=      5-min Rain = 0
KTA1 180244Z 17014KT 32/17 A2998 RMK A01 T03180169  RH  041%=      5-min Rain = 0
KTA1 180245Z 17013KT 32/17 A2998 RMK A01 T03180170  RH  041%=      5-min Rain = 0
KTA1 180246Z 18014KT 32/17 A2999 RMK A01 T03180170  RH  041%=      5-min Rain = 0
KTA1 180247Z 19014KT 32/17 A2999 RMK A01 T03180170  RH  041%=      5-min Rain = 0
KTA1 180248Z 22016KT 32/17 A30 RMK A01 T03180170  RH  041%=      5-min Rain = 0
KTA1 180249Z 23019KT 32/17 A30 RMK A01 T03170171  RH  042%=      5-min Rain = 0
KTA1 180250Z 22017KT 31/17 A30 RMK A01 T03070173  RH  045%=      5-min Rain = 0
KTA1 180251Z 22018G23KT 30/17 A3001 RMK A01 T02980173  RH  047%=      5-min Rain = 0
KTA1 180252Z 22020KT 29/17 A30 RMK A01 T02910174  RH  049%=      5-min Rain = 0
KTA1 180253Z 23014KT 29/17 A30 RMK A01 T02860174  RH  051%=      5-min Rain = 0
KTA1 180254Z 23013KT 28/18 A30 RMK A01 T02830175  RH  052%=      5-min Rain = 0
KTA1 180255Z 23015G21KT 28/18 A30 RMK A01 T02810175  RH  052%=      5-min Rain = 0
KTA1 180256Z 23024G29KT 28/18 A30 RMK A01 T02810175  RH  052%=      5-min Rain = 0
KTA1 180257Z 24022KT 28/18 A30 RMK A01 T02820176  RH  053%=      5-min Rain = 0
KTA1 180258Z 23021KT 28/18 A30 RMK A01 T02800178  RH  054%=      5-min Rain = 0
KTA1 180259Z 24018G23KT 28/18 A30 RMK A01 T02760179  RH  056%=      5-min Rain = 0
KTA1 180300Z 23019KT 27/18 A3001 RMK A01 T02740179  RH  056%=      5-min Rain = 0
KTA1 180301Z 24021G27KT 27/18 A3001 RMK A01 T02720180  RH  057%=      5-min Rain = 0
KTA1 180302Z 25020KT 27/18 A30 RMK A01 T02710180  RH  058%=      5-min Rain = 0
KTA1 180303Z 24019G25KT 27/18 A3001 RMK A01 T02710181  RH  058%=      5-min Rain = 0
KTA1 180304Z 24019KT 27/18 A3001 RMK A01 T02710181  RH  058%=      5-min Rain = 0
KTA1 180305Z 24019KT 27/18 A3001 RMK A01 T02700182  RH  058%=      5-min Rain = 0
KTA1 180306Z 24022KT 27/18 A3001 RMK A01 T02690182  RH  059%=      5-min Rain = 0
KTA1 180307Z 23019KT 27/18 A3001 RMK A01 T02690183  RH  059%=      5-min Rain = 0
KTA1 180308Z 23017KT 27/18 A3001 RMK A01 T02690183  RH  059%=      5-min Rain = 0
KTA1 180309Z 24015KT 27/18 A3001 RMK A01 T02690183  RH  059%=      5-min Rain = 0
KTA1 180310Z 24016KT 27/18 A3002 RMK A01 T02690183  RH  059%=      5-min Rain = 0
KTA1 180311Z 24018KT 27/18 A3001 RMK A01 T02690183  RH  059%=      5-min Rain = 0
KTA1 180312Z 24013G18KT 27/18 A3001 RMK A01 T02680183  RH  059%=      5-min Rain = 0
KTA1 180313Z 23015KT 27/18 A3001 RMK A01 T02690183  RH  059%=      5-min Rain = 0
KTA1 180314Z 23014G19KT 27/18 A3001 RMK A01 T02690183  RH  059%=      5-min Rain = 0
KTA1 180315Z 23015KT 27/18 A30 RMK A01 T02690183  RH  059%=      5-min Rain = 0
KTA1 180316Z 23013KT 27/18 A30 RMK A01 T02690183  RH  059%=      5-min Rain = 0
KTA1 180317Z 23009KT 27/18 A30 RMK A01 T02690183  RH  059%=      5-min Rain = 0
KTA1 180318Z 23011KT 27/18 A30 RMK A01 T02690183  RH  059%=      5-min Rain = 0
KTA1 180319Z 23014KT 27/18 A30 RMK A01 T02700184  RH  059%=      5-min Rain = 0
KTA1 180320Z 23014KT 27/19 A30 RMK A01 T02700185  RH  060%=      5-min Rain = 0
KTA1 180321Z 23013KT 27/19 A30 RMK A01 T02700185  RH  060%=      5-min Rain = 0
KTA1 180322Z 23016KT 27/19 A30 RMK A01 T02700186  RH  060%=      5-min Rain = 0
KTA1 180323Z 23015KT 27/19 A30 RMK A01 T02700187  RH  060%=      5-min Rain = 0
KTA1 180324Z 23016KT 27/19 A30 RMK A01 T02710187  RH  060%=      5-min Rain = 0
KTA1 180325Z 23015KT 27/19 A30 RMK A01 T02720187  RH  060%=      5-min Rain = 0
KTA1 180326Z 23015KT 27/19 A30 RMK A01 T02720186  RH  059%=      5-min Rain = 0
KTA1 180327Z 23014KT 27/19 A30 RMK A01 T02730185  RH  058%=      5-min Rain = 0
KTA1 180328Z 23014KT 27/18 A30 RMK A01 T02730182  RH  058%=      5-min Rain = 0
KTA1 180329Z 24014KT 27/18 A30 RMK A01 T02730181  RH  057%=      5-min Rain = 0
KTA1 180330Z 23014KT 27/18 A30 RMK A01 T02730181  RH  057%=      5-min Rain = 0
KTA1 180331Z 23013KT 27/18 A30 RMK A01 T02730182  RH  058%=      5-min Rain = 0
KTA1 180332Z 23013KT 27/18 A30 RMK A01 T02720182  RH  058%=      5-min Rain = 0
KTA1 180333Z 23012KT 27/18 A2999 RMK A01 T02720182  RH  058%=      5-min Rain = 0
KTA1 180334Z 22012KT 27/18 A2999 RMK A01 T02730182  RH  057%=      5-min Rain = 0
KTA1 180335Z 22009KT 28/18 A2999 RMK A01 T02750182  RH  057%=      5-min Rain = 0
KTA1 180336Z 22009KT 28/18 A2999 RMK A01 T02750182  RH  057%=      5-min Rain = 0
KTA1 180337Z 22008KT 28/18 A2999 RMK A01 T02750182  RH  057%=      5-min Rain = 0
KTA1 180338Z 22008KT 28/18 A2999 RMK A01 T02760182  RH  057%=      5-min Rain = 0
KTA1 180339Z 21008KT 28/18 A2999 RMK A01 T02760182  RH  057%=      5-min Rain = 0
KTA1 180340Z 21008G13KT 28/18 A2999 RMK A01 T02760183  RH  057%=      5-min Rain = 0
KTA1 180341Z 21008KT 28/18 A2999 RMK A01 T02760183  RH  057%=      5-min Rain = 0
KTA1 180342Z 21006KT 28/18 A2999 RMK A01 T02750184  RH  058%=      5-min Rain = 0
KTA1 180343Z 20006KT 27/18 A2999 RMK A01 T02740184  RH  058%=      5-min Rain = 0
KTA1 180344Z 19007KT 27/18 A2999 RMK A01 T02740184  RH  058%=      5-min Rain = 0
KTA1 180345Z 20007KT 27/18 A2999 RMK A01 T02730184  RH  058%=      5-min Rain = 0
KTA1 180346Z 19006KT 27/19 A2998 RMK A01 T02730185  RH  058%=      5-min Rain = 0
KTA1 180347Z 18006KT 27/18 A2998 RMK A01 T02730184  RH  058%=      5-min Rain = 0
KTA1 180348Z 19006KT 27/18 A2998 RMK A01 T02730184  RH  058%=      5-min Rain = 0
KTA1 180349Z 19007KT 27/18 A2998 RMK A01 T02720184  RH  058%=      5-min Rain = 0
KTA1 180350Z 18007KT 27/18 A2998 RMK A01 T02730184  RH  058%=      5-min Rain = 0
KTA1 180351Z 18006KT 27/18 A2998 RMK A01 T02720183  RH  058%=      5-min Rain = 0
KTA1 180352Z 17007KT 27/18 A2998 RMK A01 T02730183  RH  058%=      5-min Rain = 0
KTA1 180353Z 17007KT 27/18 A2998 RMK A01 T02730182  RH  058%=      5-min Rain = 0
KTA1 180354Z 17008KT 27/18 A2998 RMK A01 T02730181  RH  057%=      5-min Rain = 0
KTA1 180355Z 17008KT 28/18 A2998 RMK A01 T02750181  RH  057%=      5-min Rain = 0
KTA1 180356Z 18007KT 28/18 A2998 RMK A01 T02750181  RH  056%=      5-min Rain = 0
KTA1 180357Z 18008KT 28/18 A2998 RMK A01 T02760181  RH  056%=      5-min Rain = 0
KTA1 180358Z 18008KT 28/18 A2998 RMK A01 T02760181  RH  056%=      5-min Rain = 0
KTA1 180359Z 17009KT 28/18 A2998 RMK A01 T02770182  RH  056%=      5-min Rain = 0
KTA1 180400Z 17008KT 28/18 A2998 RMK A01 T02770183  RH  057%=      5-min Rain = 0
KTA1 180401Z 17008KT 28/18 A2998 RMK A01 T02770183  RH  057%=      5-min Rain = 0
KTA1 180402Z 17008KT 28/18 A2998 RMK A01 T02770183  RH  057%=      5-min Rain = 0
KTA1 180403Z 17007KT 28/18 A2998 RMK A01 T02770183  RH  057%=      5-min Rain = 0
KTA1 180404Z 17007KT 28/18 A2998 RMK A01 T02770182  RH  056%=      5-min Rain = 0
KTA1 180405Z 17009KT 28/18 A2997 RMK A01 T02770182  RH  056%=      5-min Rain = 0
KTA1 180406Z 16008KT 28/18 A2997 RMK A01 T02770182  RH  056%=      5-min Rain = 0
KTA1 180407Z 16008KT 28/18 A2997 RMK A01 T02780182  RH  056%=      5-min Rain = 0
KTA1 180408Z 16007KT 28/18 A2997 RMK A01 T02780182  RH  056%=      5-min Rain = 0
KTA1 180409Z 16008KT 28/18 A2997 RMK A01 T02770182  RH  056%=      5-min Rain = 0
KTA1 180410Z 15007KT 28/18 A2998 RMK A01 T02770182  RH  056%=      5-min Rain = 0
KTA1 180411Z 15007KT 28/18 A2998 RMK A01 T02760182  RH  057%=      5-min Rain = 0
KTA1 180412Z 16008KT 28/18 A2998 RMK A01 T02750182  RH  057%=      5-min Rain = 0
KTA1 180413Z 16007KT 28/18 A2998 RMK A01 T02750182  RH  057%=      5-min Rain = 0
KTA1 180414Z 16008KT 27/18 A2998 RMK A01 T02740182  RH  057%=      5-min Rain = 0
KTA1 180415Z 16007KT 27/18 A2998 RMK A01 T02740182  RH  057%=      5-min Rain = 0
KTA1 180416Z 16007KT 28/18 A2998 RMK A01 T02750182  RH  057%=      5-min Rain = 0
KTA1 180417Z 16006KT 28/18 A2998 RMK A01 T02750182  RH  057%=      5-min Rain = 0
KTA1 180418Z 16007KT 28/18 A2998 RMK A01 T02750182  RH  057%=      5-min Rain = 0
KTA1 180419Z 16006KT 27/18 A2998 RMK A01 T02740182  RH  057%=      5-min Rain = 0
KTA1 180420Z 16006KT 28/18 A2998 RMK A01 T02750182  RH  057%=      5-min Rain = 0
KTA1 180421Z 16005KT 28/18 A2998 RMK A01 T02750183  RH  057%=      5-min Rain = 0
KTA1 180422Z 16005KT 27/18 A2998 RMK A01 T02740182  RH  057%=      5-min Rain = 0
KTA1 180423Z 16005KT 27/18 A2998 RMK A01 T02740182  RH  057%=      5-min Rain = 0
KTA1 180424Z 16006KT 27/18 A2998 RMK A01 T02740182  RH  057%=      5-min Rain = 0
KTA1 180425Z 17005KT 27/18 A2999 RMK A01 T02740182  RH  057%=      5-min Rain = 0
KTA1 180426Z 16006KT 27/18 A2999 RMK A01 T02740182  RH  057%=      5-min Rain = 0
KTA1 180427Z 16005KT 27/18 A2999 RMK A01 T02730182  RH  057%=      5-min Rain = 0
KTA1 180428Z 16006KT 27/18 A2999 RMK A01 T02740182  RH  057%=      5-min Rain = 0
KTA1 180429Z 16005KT 27/18 A2999 RMK A01 T02730182  RH  057%=      5-min Rain = 0
KTA1 180430Z 16005KT 27/18 A2999 RMK A01 T02730182  RH  057%=      5-min Rain = 0
KTA1 180431Z 16006KT 27/18 A2999 RMK A01 T02730182  RH  057%=      5-min Rain = 0
KTA1 180432Z 16006KT 27/18 A2999 RMK A01 T02730182  RH  058%=      5-min Rain = 0
KTA1 180433Z 16005KT 27/18 A2999 RMK A01 T02730182  RH  058%=      5-min Rain = 0
KTA1 180434Z 17005KT 27/18 A2999 RMK A01 T02730183  RH  058%=      5-min Rain = 0
KTA1 180435Z 16006KT 27/18 A2999 RMK A01 T02720183  RH  058%=      5-min Rain = 0
KTA1 180436Z 17005KT 27/18 A2999 RMK A01 T02720183  RH  058%=      5-min Rain = 0
KTA1 180437Z 17005KT 27/18 A2999 RMK A01 T02720183  RH  058%=      5-min Rain = 0
KTA1 180438Z 16005KT 27/18 A2999 RMK A01 T02720183  RH  058%=      5-min Rain = 0
KTA1 180439Z 16005KT 27/18 A2999 RMK A01 T02720183  RH  058%=      5-min Rain = 0
KTA1 180440Z 16006KT 27/18 A2999 RMK A01 T02720183  RH  059%=      5-min Rain = 0
KTA1 180441Z 16006KT 27/18 A2999 RMK A01 T02710183  RH  059%=      5-min Rain = 0
KTA1 180442Z 17006KT 27/18 A2999 RMK A01 T02710184  RH  059%=      5-min Rain = 0
KTA1 180443Z 16005KT 27/18 A2999 RMK A01 T02710184  RH  059%=      5-min Rain = 0
KTA1 180444Z 16005KT 27/18 A2999 RMK A01 T02700183  RH  059%=      5-min Rain = 0
KTA1 180445Z 16006KT 27/18 A2999 RMK A01 T02700183  RH  059%=      5-min Rain = 0
KTA1 180446Z 16006KT 27/18 A2999 RMK A01 T02700184  RH  059%=      5-min Rain = 0
KTA1 180447Z 15006KT 27/18 A2999 RMK A01 T02700184  RH  059%=      5-min Rain = 0
KTA1 180448Z 15004KT 27/18 A2999 RMK A01 T02690184  RH  059%=      5-min Rain = 0
KTA1 180449Z 15004KT 27/18 A2999 RMK A01 T02690183  RH  059%=      5-min Rain = 0
KTA1 180450Z 15005KT 27/18 A2999 RMK A01 T02680184  RH  060%=      5-min Rain = 0
KTA1 180451Z 15004KT 27/18 A2999 RMK A01 T02680183  RH  060%=      5-min Rain = 0
KTA1 180452Z 14004KT 27/18 A2999 RMK A01 T02670183  RH  060%=      5-min Rain = 0
KTA1 180453Z 14004KT 27/18 A2999 RMK A01 T02670183  RH  060%=      5-min Rain = 0
KTA1 180454Z 15004KT 27/18 A2999 RMK A01 T02670183  RH  060%=      5-min Rain = 0
KTA1 180455Z 14004KT 27/18 A2999 RMK A01 T02660183  RH  060%=      5-min Rain = 0
KTA1 180456Z 15004KT 27/18 A2999 RMK A01 T02660183  RH  060%=      5-min Rain = 0
KTA1 180457Z 15004KT 27/18 A2999 RMK A01 T02660183  RH  060%=      5-min Rain = 0
KTA1 180458Z 15004KT 27/18 A2999 RMK A01 T02660183  RH  060%=      5-min Rain = 0
KTA1 180459Z 15005KT 27/18 A2999 RMK A01 T02660183  RH  060%=      5-min Rain = 0

Page generated in 0.0787 seconds.